<?xml version="1.0" encoding="UTF-8" standalone="no" ?>
<gpx xmlns="http://www.topografix.com/GPX/1/1" xmlns:xsi="http://www.w3.org/2001/XMLSchema-instance" xsi:schemaLocation="http://www.topografix.com/GPX/1/1 http://www.topografix.com/GPX/1/1/gpx.xsd" version="1.1" creator="VisuGPX - https://www.visugpx.com">
  <metadata>
    <name>trail de l'hers 2023</name>
  </metadata>
  <trk>
    <name><![CDATA[Trail 2 l'Hers - 25k-16415007]]></name>
    <extensions>
      <line xmlns="http://www.topografix.com/GPX/gpx_style/0/2">
        <color>ff0000</color>
        <width>4</width>
          <extensions>
            <sens>1</sens>
          </extensions>
      </line>
    </extensions>
    <trkseg>
      <trkpt lat="42.95608" lon="1.9108">
        <ele>430</ele>
        <time>2023-04-24T17:44:41Z</time>
      </trkpt>
      <trkpt lat="42.95639" lon="1.91115">
        <ele>430</ele>
        <time>2023-04-24T17:45:01Z</time>
      </trkpt>
      <trkpt lat="42.95669" lon="1.91086">
        <ele>430</ele>
        <time>2023-04-24T17:45:20Z</time>
      </trkpt>
      <trkpt lat="42.95648" lon="1.91049">
        <ele>431</ele>
        <time>2023-04-24T17:45:37Z</time>
      </trkpt>
      <trkpt lat="42.9566" lon="1.91026">
        <ele>433</ele>
        <time>2023-04-24T17:45:47Z</time>
      </trkpt>
      <trkpt lat="42.95649" lon="1.91014">
        <ele>433</ele>
        <time>2023-04-24T17:45:54Z</time>
      </trkpt>
      <trkpt lat="42.95657" lon="1.91008">
        <ele>433</ele>
        <time>2023-04-24T17:45:59Z</time>
      </trkpt>
      <trkpt lat="42.95723" lon="1.90998">
        <ele>437</ele>
        <time>2023-04-24T17:46:32Z</time>
      </trkpt>
      <trkpt lat="42.95748" lon="1.90989">
        <ele>439</ele>
        <time>2023-04-24T17:46:45Z</time>
      </trkpt>
      <trkpt lat="42.95751" lon="1.9099">
        <ele>439</ele>
        <time>2023-04-24T17:46:46Z</time>
      </trkpt>
      <trkpt lat="42.95749" lon="1.90972">
        <ele>440</ele>
        <time>2023-04-24T17:46:53Z</time>
      </trkpt>
      <trkpt lat="42.95733" lon="1.90934">
        <ele>442</ele>
        <time>2023-04-24T17:47:09Z</time>
      </trkpt>
      <trkpt lat="42.95714" lon="1.90899">
        <ele>443</ele>
        <time>2023-04-24T17:47:25Z</time>
      </trkpt>
      <trkpt lat="42.95681" lon="1.90858">
        <ele>443</ele>
        <time>2023-04-24T17:47:47Z</time>
      </trkpt>
      <trkpt lat="42.95665" lon="1.90834">
        <ele>444</ele>
        <time>2023-04-24T17:47:59Z</time>
      </trkpt>
      <trkpt lat="42.95668" lon="1.9083">
        <ele>444</ele>
        <time>2023-04-24T17:48:01Z</time>
      </trkpt>
      <trkpt lat="42.95674" lon="1.90832">
        <ele>444</ele>
        <time>2023-04-24T17:48:04Z</time>
      </trkpt>
      <trkpt lat="42.95684" lon="1.90826">
        <ele>445</ele>
        <time>2023-04-24T17:48:10Z</time>
      </trkpt>
      <trkpt lat="42.95688" lon="1.90818">
        <ele>445</ele>
        <time>2023-04-24T17:48:13Z</time>
      </trkpt>
      <trkpt lat="42.95719" lon="1.907">
        <ele>446</ele>
        <time>2023-04-24T17:48:59Z</time>
      </trkpt>
      <trkpt lat="42.95731" lon="1.90685">
        <ele>446</ele>
        <time>2023-04-24T17:49:07Z</time>
      </trkpt>
      <trkpt lat="42.95794" lon="1.90643">
        <ele>449</ele>
        <time>2023-04-24T17:49:43Z</time>
      </trkpt>
      <trkpt lat="42.95815" lon="1.90636">
        <ele>451</ele>
        <time>2023-04-24T17:49:53Z</time>
      </trkpt>
      <trkpt lat="42.95825" lon="1.90638">
        <ele>452</ele>
        <time>2023-04-24T17:49:58Z</time>
      </trkpt>
      <trkpt lat="42.95876" lon="1.90668">
        <ele>455</ele>
        <time>2023-04-24T17:50:26Z</time>
      </trkpt>
      <trkpt lat="42.95907" lon="1.90674">
        <ele>457</ele>
        <time>2023-04-24T17:50:42Z</time>
      </trkpt>
      <trkpt lat="42.95914" lon="1.90673">
        <ele>458</ele>
        <time>2023-04-24T17:50:45Z</time>
      </trkpt>
      <trkpt lat="42.95955" lon="1.90639">
        <ele>463</ele>
        <time>2023-04-24T17:51:09Z</time>
      </trkpt>
      <trkpt lat="42.95989" lon="1.90581">
        <ele>468</ele>
        <time>2023-04-24T17:51:37Z</time>
      </trkpt>
      <trkpt lat="42.95999" lon="1.90545">
        <ele>468</ele>
        <time>2023-04-24T17:51:51Z</time>
      </trkpt>
      <trkpt lat="42.96008" lon="1.90526">
        <ele>470</ele>
        <time>2023-04-24T17:51:59Z</time>
      </trkpt>
      <trkpt lat="42.96111" lon="1.90359">
        <ele>484</ele>
        <time>2023-04-24T17:53:19Z</time>
      </trkpt>
      <trkpt lat="42.9619" lon="1.90278">
        <ele>500</ele>
        <time>2023-04-24T17:54:08Z</time>
      </trkpt>
      <trkpt lat="42.96226" lon="1.90231">
        <ele>505</ele>
        <time>2023-04-24T17:54:33Z</time>
      </trkpt>
      <trkpt lat="42.96238" lon="1.9023">
        <ele>509</ele>
        <time>2023-04-24T17:54:39Z</time>
      </trkpt>
      <trkpt lat="42.9626" lon="1.90239">
        <ele>513</ele>
        <time>2023-04-24T17:54:51Z</time>
      </trkpt>
      <trkpt lat="42.96265" lon="1.90237">
        <ele>513</ele>
        <time>2023-04-24T17:54:53Z</time>
      </trkpt>
      <trkpt lat="42.96268" lon="1.9024">
        <ele>514</ele>
        <time>2023-04-24T17:54:55Z</time>
      </trkpt>
      <trkpt lat="42.96277" lon="1.9024">
        <ele>514</ele>
        <time>2023-04-24T17:55:00Z</time>
      </trkpt>
      <trkpt lat="42.96276" lon="1.90258">
        <ele>515</ele>
        <time>2023-04-24T17:55:06Z</time>
      </trkpt>
      <trkpt lat="42.9627" lon="1.90283">
        <ele>518</ele>
        <time>2023-04-24T17:55:16Z</time>
      </trkpt>
      <trkpt lat="42.9624" lon="1.90351">
        <ele>521</ele>
        <time>2023-04-24T17:55:45Z</time>
      </trkpt>
      <trkpt lat="42.96238" lon="1.90363">
        <ele>522</ele>
        <time>2023-04-24T17:55:50Z</time>
      </trkpt>
      <trkpt lat="42.96241" lon="1.90376">
        <ele>523</ele>
        <time>2023-04-24T17:55:55Z</time>
      </trkpt>
      <trkpt lat="42.96237" lon="1.90388">
        <ele>523</ele>
        <time>2023-04-24T17:55:59Z</time>
      </trkpt>
      <trkpt lat="42.96231" lon="1.90398">
        <ele>522</ele>
        <time>2023-04-24T17:56:04Z</time>
      </trkpt>
      <trkpt lat="42.96228" lon="1.90411">
        <ele>523</ele>
        <time>2023-04-24T17:56:09Z</time>
      </trkpt>
      <trkpt lat="42.96204" lon="1.90436">
        <ele>519</ele>
        <time>2023-04-24T17:56:24Z</time>
      </trkpt>
      <trkpt lat="42.96188" lon="1.90488">
        <ele>519</ele>
        <time>2023-04-24T17:56:45Z</time>
      </trkpt>
      <trkpt lat="42.96187" lon="1.905">
        <ele>520</ele>
        <time>2023-04-24T17:56:49Z</time>
      </trkpt>
      <trkpt lat="42.96191" lon="1.90513">
        <ele>520</ele>
        <time>2023-04-24T17:56:55Z</time>
      </trkpt>
      <trkpt lat="42.96198" lon="1.90525">
        <ele>521</ele>
        <time>2023-04-24T17:57:00Z</time>
      </trkpt>
      <trkpt lat="42.96201" lon="1.90538">
        <ele>521</ele>
        <time>2023-04-24T17:57:05Z</time>
      </trkpt>
      <trkpt lat="42.96201" lon="1.90608">
        <ele>519</ele>
        <time>2023-04-24T17:57:31Z</time>
      </trkpt>
      <trkpt lat="42.96204" lon="1.90621">
        <ele>519</ele>
        <time>2023-04-24T17:57:36Z</time>
      </trkpt>
      <trkpt lat="42.96205" lon="1.90664">
        <ele>518</ele>
        <time>2023-04-24T17:57:52Z</time>
      </trkpt>
      <trkpt lat="42.96208" lon="1.90676">
        <ele>519</ele>
        <time>2023-04-24T17:57:56Z</time>
      </trkpt>
      <trkpt lat="42.96205" lon="1.90734">
        <ele>519</ele>
        <time>2023-04-24T17:58:17Z</time>
      </trkpt>
      <trkpt lat="42.96201" lon="1.9076">
        <ele>519</ele>
        <time>2023-04-24T17:58:27Z</time>
      </trkpt>
      <trkpt lat="42.96191" lon="1.90782">
        <ele>519</ele>
        <time>2023-04-24T17:58:37Z</time>
      </trkpt>
      <trkpt lat="42.96181" lon="1.90822">
        <ele>520</ele>
        <time>2023-04-24T17:58:52Z</time>
      </trkpt>
      <trkpt lat="42.96171" lon="1.90889">
        <ele>522</ele>
        <time>2023-04-24T17:59:17Z</time>
      </trkpt>
      <trkpt lat="42.96163" lon="1.90926">
        <ele>522</ele>
        <time>2023-04-24T17:59:31Z</time>
      </trkpt>
      <trkpt lat="42.96167" lon="1.90968">
        <ele>524</ele>
        <time>2023-04-24T17:59:47Z</time>
      </trkpt>
      <trkpt lat="42.96167" lon="1.91035">
        <ele>525</ele>
        <time>2023-04-24T18:00:11Z</time>
      </trkpt>
      <trkpt lat="42.96171" lon="1.91064">
        <ele>525</ele>
        <time>2023-04-24T18:00:22Z</time>
      </trkpt>
      <trkpt lat="42.96165" lon="1.91076">
        <ele>524</ele>
        <time>2023-04-24T18:00:28Z</time>
      </trkpt>
      <trkpt lat="42.96165" lon="1.91188">
        <ele>523</ele>
        <time>2023-04-24T18:01:09Z</time>
      </trkpt>
      <trkpt lat="42.96172" lon="1.91256">
        <ele>522</ele>
        <time>2023-04-24T18:01:34Z</time>
      </trkpt>
      <trkpt lat="42.96167" lon="1.91283">
        <ele>523</ele>
        <time>2023-04-24T18:01:44Z</time>
      </trkpt>
      <trkpt lat="42.96156" lon="1.91305">
        <ele>521</ele>
        <time>2023-04-24T18:01:54Z</time>
      </trkpt>
      <trkpt lat="42.96149" lon="1.91329">
        <ele>519</ele>
        <time>2023-04-24T18:02:03Z</time>
      </trkpt>
      <trkpt lat="42.96135" lon="1.91354">
        <ele>515</ele>
        <time>2023-04-24T18:02:15Z</time>
      </trkpt>
      <trkpt lat="42.9613" lon="1.9138">
        <ele>514</ele>
        <time>2023-04-24T18:02:24Z</time>
      </trkpt>
      <trkpt lat="42.96124" lon="1.91393">
        <ele>513</ele>
        <time>2023-04-24T18:02:30Z</time>
      </trkpt>
      <trkpt lat="42.96124" lon="1.91407">
        <ele>513</ele>
        <time>2023-04-24T18:02:35Z</time>
      </trkpt>
      <trkpt lat="42.96114" lon="1.91474">
        <ele>511</ele>
        <time>2023-04-24T18:03:00Z</time>
      </trkpt>
      <trkpt lat="42.96108" lon="1.91499">
        <ele>510</ele>
        <time>2023-04-24T18:03:10Z</time>
      </trkpt>
      <trkpt lat="42.96111" lon="1.91537">
        <ele>513</ele>
        <time>2023-04-24T18:03:24Z</time>
      </trkpt>
      <trkpt lat="42.96105" lon="1.91547">
        <ele>512</ele>
        <time>2023-04-24T18:03:29Z</time>
      </trkpt>
      <trkpt lat="42.96105" lon="1.91575">
        <ele>514</ele>
        <time>2023-04-24T18:03:39Z</time>
      </trkpt>
      <trkpt lat="42.96087" lon="1.91623">
        <ele>514</ele>
        <time>2023-04-24T18:03:59Z</time>
      </trkpt>
      <trkpt lat="42.96083" lon="1.91663">
        <ele>516</ele>
        <time>2023-04-24T18:04:13Z</time>
      </trkpt>
      <trkpt lat="42.96077" lon="1.91687">
        <ele>516</ele>
        <time>2023-04-24T18:04:23Z</time>
      </trkpt>
      <trkpt lat="42.96079" lon="1.91712">
        <ele>518</ele>
        <time>2023-04-24T18:04:32Z</time>
      </trkpt>
      <trkpt lat="42.9607" lon="1.91737">
        <ele>516</ele>
        <time>2023-04-24T18:04:42Z</time>
      </trkpt>
      <trkpt lat="42.96059" lon="1.91815">
        <ele>516</ele>
        <time>2023-04-24T18:05:11Z</time>
      </trkpt>
      <trkpt lat="42.96053" lon="1.91842">
        <ele>515</ele>
        <time>2023-04-24T18:05:22Z</time>
      </trkpt>
      <trkpt lat="42.96048" lon="1.91893">
        <ele>515</ele>
        <time>2023-04-24T18:05:40Z</time>
      </trkpt>
      <trkpt lat="42.9605" lon="1.91919">
        <ele>516</ele>
        <time>2023-04-24T18:05:50Z</time>
      </trkpt>
      <trkpt lat="42.96057" lon="1.91945">
        <ele>518</ele>
        <time>2023-04-24T18:06:00Z</time>
      </trkpt>
      <trkpt lat="42.96058" lon="1.91973">
        <ele>518</ele>
        <time>2023-04-24T18:06:10Z</time>
      </trkpt>
      <trkpt lat="42.96051" lon="1.91983">
        <ele>515</ele>
        <time>2023-04-24T18:06:15Z</time>
      </trkpt>
      <trkpt lat="42.96051" lon="1.91996">
        <ele>514</ele>
        <time>2023-04-24T18:06:20Z</time>
      </trkpt>
      <trkpt lat="42.96063" lon="1.92035">
        <ele>514</ele>
        <time>2023-04-24T18:06:36Z</time>
      </trkpt>
      <trkpt lat="42.96098" lon="1.92115">
        <ele>512</ele>
        <time>2023-04-24T18:07:10Z</time>
      </trkpt>
      <trkpt lat="42.96099" lon="1.92143">
        <ele>508</ele>
        <time>2023-04-24T18:07:20Z</time>
      </trkpt>
      <trkpt lat="42.96125" lon="1.92141">
        <ele>511</ele>
        <time>2023-04-24T18:07:33Z</time>
      </trkpt>
      <trkpt lat="42.96132" lon="1.92151">
        <ele>511</ele>
        <time>2023-04-24T18:07:38Z</time>
      </trkpt>
      <trkpt lat="42.96143" lon="1.9215">
        <ele>512</ele>
        <time>2023-04-24T18:07:44Z</time>
      </trkpt>
      <trkpt lat="42.96179" lon="1.92161">
        <ele>516</ele>
        <time>2023-04-24T18:08:02Z</time>
      </trkpt>
      <trkpt lat="42.9622" lon="1.92213">
        <ele>522</ele>
        <time>2023-04-24T18:08:30Z</time>
      </trkpt>
      <trkpt lat="42.96228" lon="1.92219">
        <ele>523</ele>
        <time>2023-04-24T18:08:35Z</time>
      </trkpt>
      <trkpt lat="42.96272" lon="1.92246">
        <ele>529</ele>
        <time>2023-04-24T18:08:59Z</time>
      </trkpt>
      <trkpt lat="42.9628" lon="1.92248">
        <ele>530</ele>
        <time>2023-04-24T18:09:03Z</time>
      </trkpt>
      <trkpt lat="42.96304" lon="1.92246">
        <ele>532</ele>
        <time>2023-04-24T18:09:15Z</time>
      </trkpt>
      <trkpt lat="42.96311" lon="1.92248">
        <ele>533</ele>
        <time>2023-04-24T18:09:19Z</time>
      </trkpt>
      <trkpt lat="42.96337" lon="1.92267">
        <ele>533</ele>
        <time>2023-04-24T18:09:33Z</time>
      </trkpt>
      <trkpt lat="42.96356" lon="1.92286">
        <ele>529</ele>
        <time>2023-04-24T18:09:45Z</time>
      </trkpt>
      <trkpt lat="42.96359" lon="1.92329">
        <ele>526</ele>
        <time>2023-04-24T18:10:01Z</time>
      </trkpt>
      <trkpt lat="42.96372" lon="1.92419">
        <ele>521</ele>
        <time>2023-04-24T18:10:35Z</time>
      </trkpt>
      <trkpt lat="42.96416" lon="1.92383">
        <ele>525</ele>
        <time>2023-04-24T18:11:00Z</time>
      </trkpt>
      <trkpt lat="42.96435" lon="1.92363">
        <ele>524</ele>
        <time>2023-04-24T18:11:12Z</time>
      </trkpt>
      <trkpt lat="42.96448" lon="1.92373">
        <ele>522</ele>
        <time>2023-04-24T18:11:20Z</time>
      </trkpt>
      <trkpt lat="42.96484" lon="1.92388">
        <ele>519</ele>
        <time>2023-04-24T18:11:38Z</time>
      </trkpt>
      <trkpt lat="42.96495" lon="1.92389">
        <ele>517</ele>
        <time>2023-04-24T18:11:44Z</time>
      </trkpt>
      <trkpt lat="42.96504" lon="1.92384">
        <ele>516</ele>
        <time>2023-04-24T18:11:49Z</time>
      </trkpt>
      <trkpt lat="42.96518" lon="1.92366">
        <ele>515</ele>
        <time>2023-04-24T18:11:58Z</time>
      </trkpt>
      <trkpt lat="42.96528" lon="1.92359">
        <ele>514</ele>
        <time>2023-04-24T18:12:04Z</time>
      </trkpt>
      <trkpt lat="42.96549" lon="1.92357">
        <ele>511</ele>
        <time>2023-04-24T18:12:15Z</time>
      </trkpt>
      <trkpt lat="42.96559" lon="1.9235">
        <ele>510</ele>
        <time>2023-04-24T18:12:20Z</time>
      </trkpt>
      <trkpt lat="42.966" lon="1.9229">
        <ele>507</ele>
        <time>2023-04-24T18:12:50Z</time>
      </trkpt>
      <trkpt lat="42.96666" lon="1.923">
        <ele>505</ele>
        <time>2023-04-24T18:13:24Z</time>
      </trkpt>
      <trkpt lat="42.96669" lon="1.92306">
        <ele>505</ele>
        <time>2023-04-24T18:13:26Z</time>
      </trkpt>
      <trkpt lat="42.96671" lon="1.92336">
        <ele>503</ele>
        <time>2023-04-24T18:13:37Z</time>
      </trkpt>
      <trkpt lat="42.96675" lon="1.92344">
        <ele>502</ele>
        <time>2023-04-24T18:13:41Z</time>
      </trkpt>
      <trkpt lat="42.96679" lon="1.92346">
        <ele>501</ele>
        <time>2023-04-24T18:13:43Z</time>
      </trkpt>
      <trkpt lat="42.96703" lon="1.9234">
        <ele>500</ele>
        <time>2023-04-24T18:13:55Z</time>
      </trkpt>
      <trkpt lat="42.96769" lon="1.92331">
        <ele>496</ele>
        <time>2023-04-24T18:14:28Z</time>
      </trkpt>
      <trkpt lat="42.96802" lon="1.9232">
        <ele>496</ele>
        <time>2023-04-24T18:14:45Z</time>
      </trkpt>
      <trkpt lat="42.96811" lon="1.9232">
        <ele>495</ele>
        <time>2023-04-24T18:14:50Z</time>
      </trkpt>
      <trkpt lat="42.96819" lon="1.92324">
        <ele>494</ele>
        <time>2023-04-24T18:14:54Z</time>
      </trkpt>
      <trkpt lat="42.96825" lon="1.92333">
        <ele>493</ele>
        <time>2023-04-24T18:14:59Z</time>
      </trkpt>
      <trkpt lat="42.96859" lon="1.92418">
        <ele>484</ele>
        <time>2023-04-24T18:15:34Z</time>
      </trkpt>
      <trkpt lat="42.96863" lon="1.92435">
        <ele>483</ele>
        <time>2023-04-24T18:15:41Z</time>
      </trkpt>
      <trkpt lat="42.96868" lon="1.92494">
        <ele>479</ele>
        <time>2023-04-24T18:16:02Z</time>
      </trkpt>
      <trkpt lat="42.96867" lon="1.92534">
        <ele>478</ele>
        <time>2023-04-24T18:16:17Z</time>
      </trkpt>
      <trkpt lat="42.96894" lon="1.92537">
        <ele>477</ele>
        <time>2023-04-24T18:16:31Z</time>
      </trkpt>
      <trkpt lat="42.96927" lon="1.92529">
        <ele>477</ele>
        <time>2023-04-24T18:16:47Z</time>
      </trkpt>
      <trkpt lat="42.96959" lon="1.92505">
        <ele>475</ele>
        <time>2023-04-24T18:17:06Z</time>
      </trkpt>
      <trkpt lat="42.96972" lon="1.92485">
        <ele>475</ele>
        <time>2023-04-24T18:17:15Z</time>
      </trkpt>
      <trkpt lat="42.97041" lon="1.92507">
        <ele>468</ele>
        <time>2023-04-24T18:17:51Z</time>
      </trkpt>
      <trkpt lat="42.97094" lon="1.92513">
        <ele>461</ele>
        <time>2023-04-24T18:18:17Z</time>
      </trkpt>
      <trkpt lat="42.97111" lon="1.92538">
        <ele>459</ele>
        <time>2023-04-24T18:18:30Z</time>
      </trkpt>
      <trkpt lat="42.97128" lon="1.92579">
        <ele>456</ele>
        <time>2023-04-24T18:18:47Z</time>
      </trkpt>
      <trkpt lat="42.97144" lon="1.92597">
        <ele>455</ele>
        <time>2023-04-24T18:18:58Z</time>
      </trkpt>
      <trkpt lat="42.97164" lon="1.92611">
        <ele>454</ele>
        <time>2023-04-24T18:19:09Z</time>
      </trkpt>
      <trkpt lat="42.97103" lon="1.92874">
        <ele>460</ele>
        <time>2023-04-24T18:20:50Z</time>
      </trkpt>
      <trkpt lat="42.97072" lon="1.93019">
        <ele>456</ele>
        <time>2023-04-24T18:21:45Z</time>
      </trkpt>
      <trkpt lat="42.97091" lon="1.93027">
        <ele>456</ele>
        <time>2023-04-24T18:21:55Z</time>
      </trkpt>
      <trkpt lat="42.971" lon="1.9302">
        <ele>455</ele>
        <time>2023-04-24T18:22:00Z</time>
      </trkpt>
      <trkpt lat="42.97131" lon="1.93011">
        <ele>455</ele>
        <time>2023-04-24T18:22:16Z</time>
      </trkpt>
      <trkpt lat="42.97141" lon="1.93012">
        <ele>455</ele>
        <time>2023-04-24T18:22:21Z</time>
      </trkpt>
      <trkpt lat="42.97157" lon="1.92996">
        <ele>454</ele>
        <time>2023-04-24T18:22:31Z</time>
      </trkpt>
      <trkpt lat="42.97206" lon="1.92986">
        <ele>452</ele>
        <time>2023-04-24T18:22:56Z</time>
      </trkpt>
      <trkpt lat="42.97215" lon="1.92982">
        <ele>452</ele>
        <time>2023-04-24T18:23:01Z</time>
      </trkpt>
      <trkpt lat="42.97225" lon="1.92985">
        <ele>451</ele>
        <time>2023-04-24T18:23:06Z</time>
      </trkpt>
      <trkpt lat="42.97234" lon="1.9298">
        <ele>451</ele>
        <time>2023-04-24T18:23:11Z</time>
      </trkpt>
      <trkpt lat="42.97274" lon="1.92983">
        <ele>449</ele>
        <time>2023-04-24T18:23:31Z</time>
      </trkpt>
      <trkpt lat="42.97294" lon="1.92993">
        <ele>447</ele>
        <time>2023-04-24T18:23:41Z</time>
      </trkpt>
      <trkpt lat="42.97324" lon="1.93001">
        <ele>445</ele>
        <time>2023-04-24T18:23:57Z</time>
      </trkpt>
      <trkpt lat="42.97352" lon="1.93019">
        <ele>444</ele>
        <time>2023-04-24T18:24:12Z</time>
      </trkpt>
      <trkpt lat="42.97359" lon="1.93027">
        <ele>443</ele>
        <time>2023-04-24T18:24:17Z</time>
      </trkpt>
      <trkpt lat="42.97381" lon="1.93035">
        <ele>442</ele>
        <time>2023-04-24T18:24:28Z</time>
      </trkpt>
      <trkpt lat="42.97428" lon="1.93063">
        <ele>437</ele>
        <time>2023-04-24T18:24:54Z</time>
      </trkpt>
      <trkpt lat="42.97458" lon="1.93078">
        <ele>434</ele>
        <time>2023-04-24T18:25:10Z</time>
      </trkpt>
      <trkpt lat="42.97478" lon="1.93106">
        <ele>431</ele>
        <time>2023-04-24T18:25:24Z</time>
      </trkpt>
      <trkpt lat="42.97493" lon="1.93122">
        <ele>428</ele>
        <time>2023-04-24T18:25:34Z</time>
      </trkpt>
      <trkpt lat="42.97508" lon="1.93145">
        <ele>426</ele>
        <time>2023-04-24T18:25:45Z</time>
      </trkpt>
      <trkpt lat="42.97525" lon="1.93158">
        <ele>424</ele>
        <time>2023-04-24T18:25:55Z</time>
      </trkpt>
      <trkpt lat="42.97536" lon="1.93181">
        <ele>423</ele>
        <time>2023-04-24T18:26:05Z</time>
      </trkpt>
      <trkpt lat="42.97544" lon="1.93208">
        <ele>421</ele>
        <time>2023-04-24T18:26:15Z</time>
      </trkpt>
      <trkpt lat="42.97555" lon="1.93232">
        <ele>419</ele>
        <time>2023-04-24T18:26:26Z</time>
      </trkpt>
      <trkpt lat="42.97564" lon="1.93242">
        <ele>417</ele>
        <time>2023-04-24T18:26:31Z</time>
      </trkpt>
      <trkpt lat="42.97567" lon="1.93256">
        <ele>416</ele>
        <time>2023-04-24T18:26:37Z</time>
      </trkpt>
      <trkpt lat="42.97557" lon="1.93258">
        <ele>417</ele>
        <time>2023-04-24T18:26:42Z</time>
      </trkpt>
      <trkpt lat="42.97549" lon="1.93264">
        <ele>418</ele>
        <time>2023-04-24T18:26:46Z</time>
      </trkpt>
      <trkpt lat="42.97551" lon="1.93277">
        <ele>417</ele>
        <time>2023-04-24T18:26:51Z</time>
      </trkpt>
      <trkpt lat="42.97558" lon="1.93285">
        <ele>415</ele>
        <time>2023-04-24T18:26:56Z</time>
      </trkpt>
      <trkpt lat="42.97561" lon="1.93267">
        <ele>416</ele>
        <time>2023-04-24T18:27:03Z</time>
      </trkpt>
      <trkpt lat="42.97549" lon="1.93262">
        <ele>418</ele>
        <time>2023-04-24T18:27:09Z</time>
      </trkpt>
      <trkpt lat="42.97535" lon="1.93279">
        <ele>418</ele>
        <time>2023-04-24T18:27:18Z</time>
      </trkpt>
      <trkpt lat="42.97546" lon="1.93298">
        <ele>416</ele>
        <time>2023-04-24T18:27:27Z</time>
      </trkpt>
      <trkpt lat="42.97569" lon="1.93366">
        <ele>409</ele>
        <time>2023-04-24T18:27:55Z</time>
      </trkpt>
      <trkpt lat="42.97533" lon="1.93567">
        <ele>409</ele>
        <time>2023-04-24T18:29:10Z</time>
      </trkpt>
      <trkpt lat="42.9752" lon="1.93592">
        <ele>410</ele>
        <time>2023-04-24T18:29:22Z</time>
      </trkpt>
      <trkpt lat="42.97505" lon="1.93676">
        <ele>410</ele>
        <time>2023-04-24T18:29:53Z</time>
      </trkpt>
      <trkpt lat="42.97498" lon="1.93747">
        <ele>407</ele>
        <time>2023-04-24T18:30:19Z</time>
      </trkpt>
      <trkpt lat="42.97469" lon="1.9389">
        <ele>405</ele>
        <time>2023-04-24T18:31:14Z</time>
      </trkpt>
      <trkpt lat="42.97446" lon="1.94068">
        <ele>406</ele>
        <time>2023-04-24T18:32:20Z</time>
      </trkpt>
      <trkpt lat="42.97431" lon="1.941">
        <ele>407</ele>
        <time>2023-04-24T18:32:34Z</time>
      </trkpt>
      <trkpt lat="42.97398" lon="1.94184">
        <ele>406</ele>
        <time>2023-04-24T18:33:09Z</time>
      </trkpt>
      <trkpt lat="42.97319" lon="1.94405">
        <ele>405</ele>
        <time>2023-04-24T18:34:39Z</time>
      </trkpt>
      <trkpt lat="42.97282" lon="1.94552">
        <ele>412</ele>
        <time>2023-04-24T18:35:36Z</time>
      </trkpt>
      <trkpt lat="42.97272" lon="1.94606">
        <ele>413</ele>
        <time>2023-04-24T18:35:56Z</time>
      </trkpt>
      <trkpt lat="42.97277" lon="1.94623">
        <ele>413</ele>
        <time>2023-04-24T18:36:03Z</time>
      </trkpt>
      <trkpt lat="42.97294" lon="1.94622">
        <ele>414</ele>
        <time>2023-04-24T18:36:11Z</time>
      </trkpt>
      <trkpt lat="42.97314" lon="1.94592">
        <ele>411</ele>
        <time>2023-04-24T18:36:26Z</time>
      </trkpt>
      <trkpt lat="42.97337" lon="1.94539">
        <ele>407</ele>
        <time>2023-04-24T18:36:49Z</time>
      </trkpt>
      <trkpt lat="42.9738" lon="1.94535">
        <ele>407</ele>
        <time>2023-04-24T18:37:10Z</time>
      </trkpt>
      <trkpt lat="42.97443" lon="1.94538">
        <ele>411</ele>
        <time>2023-04-24T18:37:42Z</time>
      </trkpt>
      <trkpt lat="42.97485" lon="1.94492">
        <ele>408</ele>
        <time>2023-04-24T18:38:09Z</time>
      </trkpt>
      <trkpt lat="42.97521" lon="1.94447">
        <ele>402</ele>
        <time>2023-04-24T18:38:33Z</time>
      </trkpt>
      <trkpt lat="42.97563" lon="1.94433">
        <ele>402</ele>
        <time>2023-04-24T18:38:55Z</time>
      </trkpt>
      <trkpt lat="42.97636" lon="1.94427">
        <ele>401</ele>
        <time>2023-04-24T18:39:31Z</time>
      </trkpt>
      <trkpt lat="42.97655" lon="1.94453">
        <ele>402</ele>
        <time>2023-04-24T18:39:45Z</time>
      </trkpt>
      <trkpt lat="42.97655" lon="1.94483">
        <ele>403</ele>
        <time>2023-04-24T18:39:56Z</time>
      </trkpt>
      <trkpt lat="42.97648" lon="1.9452">
        <ele>404</ele>
        <time>2023-04-24T18:40:10Z</time>
      </trkpt>
      <trkpt lat="42.97632" lon="1.94562">
        <ele>405</ele>
        <time>2023-04-24T18:40:27Z</time>
      </trkpt>
      <trkpt lat="42.97635" lon="1.94618">
        <ele>403</ele>
        <time>2023-04-24T18:40:48Z</time>
      </trkpt>
      <trkpt lat="42.97628" lon="1.94671">
        <ele>403</ele>
        <time>2023-04-24T18:41:08Z</time>
      </trkpt>
      <trkpt lat="42.97564" lon="1.94861">
        <ele>403</ele>
        <time>2023-04-24T18:42:24Z</time>
      </trkpt>
      <trkpt lat="42.97513" lon="1.94982">
        <ele>405</ele>
        <time>2023-04-24T18:43:15Z</time>
      </trkpt>
      <trkpt lat="42.97494" lon="1.95058">
        <ele>402</ele>
        <time>2023-04-24T18:43:45Z</time>
      </trkpt>
      <trkpt lat="42.97476" lon="1.95102">
        <ele>401</ele>
        <time>2023-04-24T18:44:03Z</time>
      </trkpt>
      <trkpt lat="42.97448" lon="1.95131">
        <ele>402</ele>
        <time>2023-04-24T18:44:21Z</time>
      </trkpt>
      <trkpt lat="42.9741" lon="1.95142">
        <ele>404</ele>
        <time>2023-04-24T18:44:40Z</time>
      </trkpt>
      <trkpt lat="42.97382" lon="1.95124">
        <ele>403</ele>
        <time>2023-04-24T18:44:56Z</time>
      </trkpt>
      <trkpt lat="42.97365" lon="1.95086">
        <ele>403</ele>
        <time>2023-04-24T18:45:12Z</time>
      </trkpt>
      <trkpt lat="42.97352" lon="1.95033">
        <ele>406</ele>
        <time>2023-04-24T18:45:32Z</time>
      </trkpt>
      <trkpt lat="42.97332" lon="1.95001">
        <ele>408</ele>
        <time>2023-04-24T18:45:48Z</time>
      </trkpt>
      <trkpt lat="42.97273" lon="1.95014">
        <ele>406</ele>
        <time>2023-04-24T18:46:18Z</time>
      </trkpt>
      <trkpt lat="42.97216" lon="1.9501">
        <ele>405</ele>
        <time>2023-04-24T18:46:46Z</time>
      </trkpt>
      <trkpt lat="42.97122" lon="1.94959">
        <ele>406</ele>
        <time>2023-04-24T18:47:37Z</time>
      </trkpt>
      <trkpt lat="42.97083" lon="1.94946">
        <ele>405</ele>
        <time>2023-04-24T18:47:57Z</time>
      </trkpt>
      <trkpt lat="42.9705" lon="1.94906">
        <ele>406</ele>
        <time>2023-04-24T18:48:19Z</time>
      </trkpt>
      <trkpt lat="42.97038" lon="1.949">
        <ele>405</ele>
        <time>2023-04-24T18:48:25Z</time>
      </trkpt>
      <trkpt lat="42.97027" lon="1.94905">
        <ele>404</ele>
        <time>2023-04-24T18:48:31Z</time>
      </trkpt>
      <trkpt lat="42.97012" lon="1.9496">
        <ele>401</ele>
        <time>2023-04-24T18:48:53Z</time>
      </trkpt>
      <trkpt lat="42.96997" lon="1.94958">
        <ele>401</ele>
        <time>2023-04-24T18:49:00Z</time>
      </trkpt>
      <trkpt lat="42.96969" lon="1.94939">
        <ele>402</ele>
        <time>2023-04-24T18:49:16Z</time>
      </trkpt>
      <trkpt lat="42.96952" lon="1.94933">
        <ele>402</ele>
        <time>2023-04-24T18:49:25Z</time>
      </trkpt>
      <trkpt lat="42.96944" lon="1.94944">
        <ele>402</ele>
        <time>2023-04-24T18:49:30Z</time>
      </trkpt>
      <trkpt lat="42.96928" lon="1.94958">
        <ele>402</ele>
        <time>2023-04-24T18:49:40Z</time>
      </trkpt>
      <trkpt lat="42.96928" lon="1.94969">
        <ele>402</ele>
        <time>2023-04-24T18:49:44Z</time>
      </trkpt>
      <trkpt lat="42.96934" lon="1.94984">
        <ele>402</ele>
        <time>2023-04-24T18:49:50Z</time>
      </trkpt>
      <trkpt lat="42.96927" lon="1.95029">
        <ele>400</ele>
        <time>2023-04-24T18:50:07Z</time>
      </trkpt>
      <trkpt lat="42.9691" lon="1.95314">
        <ele>399</ele>
        <time>2023-04-24T18:51:52Z</time>
      </trkpt>
      <trkpt lat="42.96902" lon="1.95319">
        <ele>399</ele>
        <time>2023-04-24T18:51:56Z</time>
      </trkpt>
      <trkpt lat="42.9688" lon="1.9531">
        <ele>397</ele>
        <time>2023-04-24T18:52:08Z</time>
      </trkpt>
      <trkpt lat="42.96862" lon="1.95309">
        <ele>397</ele>
        <time>2023-04-24T18:52:17Z</time>
      </trkpt>
      <trkpt lat="42.96851" lon="1.9531">
        <ele>396</ele>
        <time>2023-04-24T18:52:22Z</time>
      </trkpt>
      <trkpt lat="42.96833" lon="1.9532">
        <ele>396</ele>
        <time>2023-04-24T18:52:32Z</time>
      </trkpt>
      <trkpt lat="42.9682" lon="1.95339">
        <ele>397</ele>
        <time>2023-04-24T18:52:41Z</time>
      </trkpt>
      <trkpt lat="42.96784" lon="1.95405">
        <ele>401</ele>
        <time>2023-04-24T18:53:12Z</time>
      </trkpt>
      <trkpt lat="42.96694" lon="1.95586">
        <ele>404</ele>
        <time>2023-04-24T18:54:32Z</time>
      </trkpt>
      <trkpt lat="42.96683" lon="1.95594">
        <ele>404</ele>
        <time>2023-04-24T18:54:38Z</time>
      </trkpt>
      <trkpt lat="42.96612" lon="1.95531">
        <ele>404</ele>
        <time>2023-04-24T18:55:20Z</time>
      </trkpt>
      <trkpt lat="42.96603" lon="1.95546">
        <ele>404</ele>
        <time>2023-04-24T18:55:27Z</time>
      </trkpt>
      <trkpt lat="42.96557" lon="1.95577">
        <ele>405</ele>
        <time>2023-04-24T18:55:53Z</time>
      </trkpt>
      <trkpt lat="42.96508" lon="1.95595">
        <ele>408</ele>
        <time>2023-04-24T18:56:18Z</time>
      </trkpt>
      <trkpt lat="42.96481" lon="1.95612">
        <ele>409</ele>
        <time>2023-04-24T18:56:33Z</time>
      </trkpt>
      <trkpt lat="42.96477" lon="1.95599">
        <ele>410</ele>
        <time>2023-04-24T18:56:38Z</time>
      </trkpt>
      <trkpt lat="42.96468" lon="1.9559">
        <ele>411</ele>
        <time>2023-04-24T18:56:44Z</time>
      </trkpt>
      <trkpt lat="42.96393" lon="1.95533">
        <ele>418</ele>
        <time>2023-04-24T18:57:27Z</time>
      </trkpt>
      <trkpt lat="42.96377" lon="1.95524">
        <ele>419</ele>
        <time>2023-04-24T18:57:36Z</time>
      </trkpt>
      <trkpt lat="42.96352" lon="1.9552">
        <ele>422</ele>
        <time>2023-04-24T18:57:48Z</time>
      </trkpt>
      <trkpt lat="42.96308" lon="1.95531">
        <ele>426</ele>
        <time>2023-04-24T18:58:11Z</time>
      </trkpt>
      <trkpt lat="42.96296" lon="1.95527">
        <ele>427</ele>
        <time>2023-04-24T18:58:17Z</time>
      </trkpt>
      <trkpt lat="42.96274" lon="1.95508">
        <ele>428</ele>
        <time>2023-04-24T18:58:30Z</time>
      </trkpt>
      <trkpt lat="42.96268" lon="1.95507">
        <ele>428</ele>
        <time>2023-04-24T18:58:33Z</time>
      </trkpt>
      <trkpt lat="42.96263" lon="1.95509">
        <ele>429</ele>
        <time>2023-04-24T18:58:35Z</time>
      </trkpt>
      <trkpt lat="42.9626" lon="1.95513">
        <ele>429</ele>
        <time>2023-04-24T18:58:38Z</time>
      </trkpt>
      <trkpt lat="42.96242" lon="1.95584">
        <ele>434</ele>
        <time>2023-04-24T18:59:05Z</time>
      </trkpt>
      <trkpt lat="42.96224" lon="1.95616">
        <ele>436</ele>
        <time>2023-04-24T18:59:20Z</time>
      </trkpt>
      <trkpt lat="42.96221" lon="1.95617">
        <ele>436</ele>
        <time>2023-04-24T18:59:21Z</time>
      </trkpt>
      <trkpt lat="42.96231" lon="1.95646">
        <ele>436</ele>
        <time>2023-04-24T18:59:33Z</time>
      </trkpt>
      <trkpt lat="42.96225" lon="1.95715">
        <ele>436</ele>
        <time>2023-04-24T18:59:59Z</time>
      </trkpt>
      <trkpt lat="42.9622" lon="1.95726">
        <ele>436</ele>
        <time>2023-04-24T19:00:03Z</time>
      </trkpt>
      <trkpt lat="42.96211" lon="1.95731">
        <ele>436</ele>
        <time>2023-04-24T19:00:08Z</time>
      </trkpt>
      <trkpt lat="42.96204" lon="1.9574">
        <ele>436</ele>
        <time>2023-04-24T19:00:13Z</time>
      </trkpt>
      <trkpt lat="42.96099" lon="1.9576">
        <ele>445</ele>
        <time>2023-04-24T19:01:06Z</time>
      </trkpt>
      <trkpt lat="42.96024" lon="1.95787">
        <ele>452</ele>
        <time>2023-04-24T19:01:45Z</time>
      </trkpt>
      <trkpt lat="42.96015" lon="1.95794">
        <ele>453</ele>
        <time>2023-04-24T19:01:50Z</time>
      </trkpt>
      <trkpt lat="42.95969" lon="1.95862">
        <ele>458</ele>
        <time>2023-04-24T19:02:24Z</time>
      </trkpt>
      <trkpt lat="42.95941" lon="1.95869">
        <ele>462</ele>
        <time>2023-04-24T19:02:38Z</time>
      </trkpt>
      <trkpt lat="42.95924" lon="1.95879">
        <ele>465</ele>
        <time>2023-04-24T19:02:47Z</time>
      </trkpt>
      <trkpt lat="42.95908" lon="1.95896">
        <ele>467</ele>
        <time>2023-04-24T19:02:58Z</time>
      </trkpt>
      <trkpt lat="42.95902" lon="1.95906">
        <ele>468</ele>
        <time>2023-04-24T19:03:02Z</time>
      </trkpt>
      <trkpt lat="42.95887" lon="1.95957">
        <ele>469</ele>
        <time>2023-04-24T19:03:22Z</time>
      </trkpt>
      <trkpt lat="42.95851" lon="1.96036">
        <ele>472</ele>
        <time>2023-04-24T19:03:57Z</time>
      </trkpt>
      <trkpt lat="42.95844" lon="1.96061">
        <ele>472</ele>
        <time>2023-04-24T19:04:06Z</time>
      </trkpt>
      <trkpt lat="42.95839" lon="1.96072">
        <ele>473</ele>
        <time>2023-04-24T19:04:11Z</time>
      </trkpt>
      <trkpt lat="42.95831" lon="1.96081">
        <ele>473</ele>
        <time>2023-04-24T19:04:16Z</time>
      </trkpt>
      <trkpt lat="42.95822" lon="1.96085">
        <ele>474</ele>
        <time>2023-04-24T19:04:21Z</time>
      </trkpt>
      <trkpt lat="42.95812" lon="1.96086">
        <ele>474</ele>
        <time>2023-04-24T19:04:26Z</time>
      </trkpt>
      <trkpt lat="42.95752" lon="1.9606">
        <ele>477</ele>
        <time>2023-04-24T19:04:58Z</time>
      </trkpt>
      <trkpt lat="42.957" lon="1.96309">
        <ele>465</ele>
        <time>2023-04-24T19:06:32Z</time>
      </trkpt>
      <trkpt lat="42.95691" lon="1.96365">
        <ele>464</ele>
        <time>2023-04-24T19:06:53Z</time>
      </trkpt>
      <trkpt lat="42.95682" lon="1.96451">
        <ele>464</ele>
        <time>2023-04-24T19:07:25Z</time>
      </trkpt>
      <trkpt lat="42.9567" lon="1.96495">
        <ele>462</ele>
        <time>2023-04-24T19:07:42Z</time>
      </trkpt>
      <trkpt lat="42.95668" lon="1.96537">
        <ele>462</ele>
        <time>2023-04-24T19:07:58Z</time>
      </trkpt>
      <trkpt lat="42.95646" lon="1.96598">
        <ele>457</ele>
        <time>2023-04-24T19:08:23Z</time>
      </trkpt>
      <trkpt lat="42.95571" lon="1.96715">
        <ele>438</ele>
        <time>2023-04-24T19:09:20Z</time>
      </trkpt>
      <trkpt lat="42.95551" lon="1.96732">
        <ele>431</ele>
        <time>2023-04-24T19:09:31Z</time>
      </trkpt>
      <trkpt lat="42.95547" lon="1.96738">
        <ele>429</ele>
        <time>2023-04-24T19:09:34Z</time>
      </trkpt>
      <trkpt lat="42.95543" lon="1.96773">
        <ele>425</ele>
        <time>2023-04-24T19:09:47Z</time>
      </trkpt>
      <trkpt lat="42.95557" lon="1.96837">
        <ele>423</ele>
        <time>2023-04-24T19:10:12Z</time>
      </trkpt>
      <trkpt lat="42.95561" lon="1.96876">
        <ele>419</ele>
        <time>2023-04-24T19:10:26Z</time>
      </trkpt>
      <trkpt lat="42.9557" lon="1.96909">
        <ele>417</ele>
        <time>2023-04-24T19:10:39Z</time>
      </trkpt>
      <trkpt lat="42.95568" lon="1.96916">
        <ele>416</ele>
        <time>2023-04-24T19:10:42Z</time>
      </trkpt>
      <trkpt lat="42.95557" lon="1.96914">
        <ele>415</ele>
        <time>2023-04-24T19:10:47Z</time>
      </trkpt>
      <trkpt lat="42.95536" lon="1.96862">
        <ele>416</ele>
        <time>2023-04-24T19:11:09Z</time>
      </trkpt>
      <trkpt lat="42.95529" lon="1.96861">
        <ele>415</ele>
        <time>2023-04-24T19:11:13Z</time>
      </trkpt>
      <trkpt lat="42.95525" lon="1.96865">
        <ele>414</ele>
        <time>2023-04-24T19:11:15Z</time>
      </trkpt>
      <trkpt lat="42.9552" lon="1.96878">
        <ele>413</ele>
        <time>2023-04-24T19:11:21Z</time>
      </trkpt>
      <trkpt lat="42.95514" lon="1.96882">
        <ele>411</ele>
        <time>2023-04-24T19:11:24Z</time>
      </trkpt>
      <trkpt lat="42.95506" lon="1.96877">
        <ele>410</ele>
        <time>2023-04-24T19:11:28Z</time>
      </trkpt>
      <trkpt lat="42.9549" lon="1.96844">
        <ele>410</ele>
        <time>2023-04-24T19:11:43Z</time>
      </trkpt>
      <trkpt lat="42.95454" lon="1.96843">
        <ele>407</ele>
        <time>2023-04-24T19:12:01Z</time>
      </trkpt>
      <trkpt lat="42.95454" lon="1.96831">
        <ele>407</ele>
        <time>2023-04-24T19:12:05Z</time>
      </trkpt>
      <trkpt lat="42.95451" lon="1.96823">
        <ele>407</ele>
        <time>2023-04-24T19:12:09Z</time>
      </trkpt>
      <trkpt lat="42.95399" lon="1.96797">
        <ele>403</ele>
        <time>2023-04-24T19:12:36Z</time>
      </trkpt>
      <trkpt lat="42.95395" lon="1.96802">
        <ele>403</ele>
        <time>2023-04-24T19:12:39Z</time>
      </trkpt>
      <trkpt lat="42.95394" lon="1.96807">
        <ele>403</ele>
        <time>2023-04-24T19:12:41Z</time>
      </trkpt>
      <trkpt lat="42.95416" lon="1.96874">
        <ele>402</ele>
        <time>2023-04-24T19:13:08Z</time>
      </trkpt>
      <trkpt lat="42.95419" lon="1.96891">
        <ele>402</ele>
        <time>2023-04-24T19:13:14Z</time>
      </trkpt>
      <trkpt lat="42.95427" lon="1.96982">
        <ele>403</ele>
        <time>2023-04-24T19:13:48Z</time>
      </trkpt>
      <trkpt lat="42.95433" lon="1.97022">
        <ele>403</ele>
        <time>2023-04-24T19:14:03Z</time>
      </trkpt>
      <trkpt lat="42.95433" lon="1.97048">
        <ele>402</ele>
        <time>2023-04-24T19:14:12Z</time>
      </trkpt>
      <trkpt lat="42.95428" lon="1.97048">
        <ele>403</ele>
        <time>2023-04-24T19:14:15Z</time>
      </trkpt>
      <trkpt lat="42.9542" lon="1.97035">
        <ele>403</ele>
        <time>2023-04-24T19:14:21Z</time>
      </trkpt>
      <trkpt lat="42.95413" lon="1.9703">
        <ele>403</ele>
        <time>2023-04-24T19:14:25Z</time>
      </trkpt>
      <trkpt lat="42.95319" lon="1.96985">
        <ele>404</ele>
        <time>2023-04-24T19:15:15Z</time>
      </trkpt>
      <trkpt lat="42.95322" lon="1.96973">
        <ele>403</ele>
        <time>2023-04-24T19:15:19Z</time>
      </trkpt>
      <trkpt lat="42.95322" lon="1.96947">
        <ele>403</ele>
        <time>2023-04-24T19:15:29Z</time>
      </trkpt>
      <trkpt lat="42.95325" lon="1.96935">
        <ele>403</ele>
        <time>2023-04-24T19:15:34Z</time>
      </trkpt>
      <trkpt lat="42.95345" lon="1.96888">
        <ele>404</ele>
        <time>2023-04-24T19:15:53Z</time>
      </trkpt>
      <trkpt lat="42.95352" lon="1.96862">
        <ele>404</ele>
        <time>2023-04-24T19:16:04Z</time>
      </trkpt>
      <trkpt lat="42.95259" lon="1.9682">
        <ele>407</ele>
        <time>2023-04-24T19:16:53Z</time>
      </trkpt>
      <trkpt lat="42.95257" lon="1.96825">
        <ele>406</ele>
        <time>2023-04-24T19:16:55Z</time>
      </trkpt>
      <trkpt lat="42.95197" lon="1.96792">
        <ele>411</ele>
        <time>2023-04-24T19:17:27Z</time>
      </trkpt>
      <trkpt lat="42.95188" lon="1.96789">
        <ele>411</ele>
        <time>2023-04-24T19:17:32Z</time>
      </trkpt>
      <trkpt lat="42.95164" lon="1.96788">
        <ele>412</ele>
        <time>2023-04-24T19:17:44Z</time>
      </trkpt>
      <trkpt lat="42.95122" lon="1.96791">
        <ele>412</ele>
        <time>2023-04-24T19:18:05Z</time>
      </trkpt>
      <trkpt lat="42.95119" lon="1.96794">
        <ele>412</ele>
        <time>2023-04-24T19:18:07Z</time>
      </trkpt>
      <trkpt lat="42.95107" lon="1.96795">
        <ele>412</ele>
        <time>2023-04-24T19:18:13Z</time>
      </trkpt>
      <trkpt lat="42.95067" lon="1.96812">
        <ele>411</ele>
        <time>2023-04-24T19:18:34Z</time>
      </trkpt>
      <trkpt lat="42.95059" lon="1.96811">
        <ele>411</ele>
        <time>2023-04-24T19:18:38Z</time>
      </trkpt>
      <trkpt lat="42.94869" lon="1.96874">
        <ele>429</ele>
        <time>2023-04-24T19:20:15Z</time>
      </trkpt>
      <trkpt lat="42.94878" lon="1.96726">
        <ele>427</ele>
        <time>2023-04-24T19:21:10Z</time>
      </trkpt>
      <trkpt lat="42.94881" lon="1.96709">
        <ele>427</ele>
        <time>2023-04-24T19:21:16Z</time>
      </trkpt>
      <trkpt lat="42.94896" lon="1.9669">
        <ele>423</ele>
        <time>2023-04-24T19:21:27Z</time>
      </trkpt>
      <trkpt lat="42.94906" lon="1.96685">
        <ele>420</ele>
        <time>2023-04-24T19:21:32Z</time>
      </trkpt>
      <trkpt lat="42.94926" lon="1.96682">
        <ele>416</ele>
        <time>2023-04-24T19:21:42Z</time>
      </trkpt>
      <trkpt lat="42.94988" lon="1.96662">
        <ele>414</ele>
        <time>2023-04-24T19:22:14Z</time>
      </trkpt>
      <trkpt lat="42.9504" lon="1.96643">
        <ele>414</ele>
        <time>2023-04-24T19:22:41Z</time>
      </trkpt>
      <trkpt lat="42.95062" lon="1.96641">
        <ele>415</ele>
        <time>2023-04-24T19:22:52Z</time>
      </trkpt>
      <trkpt lat="42.95063" lon="1.9657">
        <ele>415</ele>
        <time>2023-04-24T19:23:18Z</time>
      </trkpt>
      <trkpt lat="42.95053" lon="1.96564">
        <ele>415</ele>
        <time>2023-04-24T19:23:23Z</time>
      </trkpt>
      <trkpt lat="42.95048" lon="1.96555">
        <ele>415</ele>
        <time>2023-04-24T19:23:27Z</time>
      </trkpt>
      <trkpt lat="42.95047" lon="1.96547">
        <ele>415</ele>
        <time>2023-04-24T19:23:30Z</time>
      </trkpt>
      <trkpt lat="42.95061" lon="1.96484">
        <ele>415</ele>
        <time>2023-04-24T19:23:54Z</time>
      </trkpt>
      <trkpt lat="42.95055" lon="1.96473">
        <ele>415</ele>
        <time>2023-04-24T19:24:00Z</time>
      </trkpt>
      <trkpt lat="42.94935" lon="1.96395">
        <ele>426</ele>
        <time>2023-04-24T19:25:06Z</time>
      </trkpt>
      <trkpt lat="42.94912" lon="1.96385">
        <ele>428</ele>
        <time>2023-04-24T19:25:18Z</time>
      </trkpt>
      <trkpt lat="42.94836" lon="1.96364">
        <ele>434</ele>
        <time>2023-04-24T19:25:57Z</time>
      </trkpt>
      <trkpt lat="42.9479" lon="1.96367">
        <ele>436</ele>
        <time>2023-04-24T19:26:20Z</time>
      </trkpt>
      <trkpt lat="42.94759" lon="1.96366">
        <ele>438</ele>
        <time>2023-04-24T19:26:35Z</time>
      </trkpt>
      <trkpt lat="42.94741" lon="1.96365">
        <ele>439</ele>
        <time>2023-04-24T19:26:44Z</time>
      </trkpt>
      <trkpt lat="42.9472" lon="1.9636">
        <ele>440</ele>
        <time>2023-04-24T19:26:55Z</time>
      </trkpt>
      <trkpt lat="42.94627" lon="1.96368">
        <ele>440</ele>
        <time>2023-04-24T19:27:42Z</time>
      </trkpt>
      <trkpt lat="42.94606" lon="1.96361">
        <ele>441</ele>
        <time>2023-04-24T19:27:53Z</time>
      </trkpt>
      <trkpt lat="42.9459" lon="1.96359">
        <ele>441</ele>
        <time>2023-04-24T19:28:01Z</time>
      </trkpt>
      <trkpt lat="42.94556" lon="1.96373">
        <ele>437</ele>
        <time>2023-04-24T19:28:18Z</time>
      </trkpt>
      <trkpt lat="42.94511" lon="1.9638">
        <ele>434</ele>
        <time>2023-04-24T19:28:41Z</time>
      </trkpt>
      <trkpt lat="42.94501" lon="1.96384">
        <ele>434</ele>
        <time>2023-04-24T19:28:46Z</time>
      </trkpt>
      <trkpt lat="42.94497" lon="1.96382">
        <ele>434</ele>
        <time>2023-04-24T19:28:48Z</time>
      </trkpt>
      <trkpt lat="42.9446" lon="1.9634">
        <ele>439</ele>
        <time>2023-04-24T19:29:12Z</time>
      </trkpt>
      <trkpt lat="42.94448" lon="1.96311">
        <ele>441</ele>
        <time>2023-04-24T19:29:25Z</time>
      </trkpt>
      <trkpt lat="42.94433" lon="1.96321">
        <ele>441</ele>
        <time>2023-04-24T19:29:33Z</time>
      </trkpt>
      <trkpt lat="42.94427" lon="1.9633">
        <ele>440</ele>
        <time>2023-04-24T19:29:37Z</time>
      </trkpt>
      <trkpt lat="42.94422" lon="1.96356">
        <ele>440</ele>
        <time>2023-04-24T19:29:47Z</time>
      </trkpt>
      <trkpt lat="42.94413" lon="1.9638">
        <ele>440</ele>
        <time>2023-04-24T19:29:57Z</time>
      </trkpt>
      <trkpt lat="42.94408" lon="1.96391">
        <ele>441</ele>
        <time>2023-04-24T19:30:02Z</time>
      </trkpt>
      <trkpt lat="42.944" lon="1.96398">
        <ele>441</ele>
        <time>2023-04-24T19:30:07Z</time>
      </trkpt>
      <trkpt lat="42.94371" lon="1.96398">
        <ele>443</ele>
        <time>2023-04-24T19:30:21Z</time>
      </trkpt>
      <trkpt lat="42.9431" lon="1.96409">
        <ele>448</ele>
        <time>2023-04-24T19:30:52Z</time>
      </trkpt>
      <trkpt lat="42.94301" lon="1.96406">
        <ele>449</ele>
        <time>2023-04-24T19:30:57Z</time>
      </trkpt>
      <trkpt lat="42.94298" lon="1.96393">
        <ele>450</ele>
        <time>2023-04-24T19:31:02Z</time>
      </trkpt>
      <trkpt lat="42.94298" lon="1.96366">
        <ele>451</ele>
        <time>2023-04-24T19:31:12Z</time>
      </trkpt>
      <trkpt lat="42.94292" lon="1.96356">
        <ele>452</ele>
        <time>2023-04-24T19:31:16Z</time>
      </trkpt>
      <trkpt lat="42.94283" lon="1.96349">
        <ele>454</ele>
        <time>2023-04-24T19:31:21Z</time>
      </trkpt>
      <trkpt lat="42.94255" lon="1.9634">
        <ele>458</ele>
        <time>2023-04-24T19:31:36Z</time>
      </trkpt>
      <trkpt lat="42.94227" lon="1.96325">
        <ele>463</ele>
        <time>2023-04-24T19:31:51Z</time>
      </trkpt>
      <trkpt lat="42.94211" lon="1.96311">
        <ele>466</ele>
        <time>2023-04-24T19:32:00Z</time>
      </trkpt>
      <trkpt lat="42.94189" lon="1.96285">
        <ele>472</ele>
        <time>2023-04-24T19:32:15Z</time>
      </trkpt>
      <trkpt lat="42.94179" lon="1.96261">
        <ele>475</ele>
        <time>2023-04-24T19:32:25Z</time>
      </trkpt>
      <trkpt lat="42.94169" lon="1.96183">
        <ele>478</ele>
        <time>2023-04-24T19:32:54Z</time>
      </trkpt>
      <trkpt lat="42.94161" lon="1.96174">
        <ele>480</ele>
        <time>2023-04-24T19:32:59Z</time>
      </trkpt>
      <trkpt lat="42.94128" lon="1.96148">
        <ele>484</ele>
        <time>2023-04-24T19:33:18Z</time>
      </trkpt>
      <trkpt lat="42.94118" lon="1.96146">
        <ele>485</ele>
        <time>2023-04-24T19:33:23Z</time>
      </trkpt>
      <trkpt lat="42.9409" lon="1.96155">
        <ele>489</ele>
        <time>2023-04-24T19:33:38Z</time>
      </trkpt>
      <trkpt lat="42.94074" lon="1.96169">
        <ele>491</ele>
        <time>2023-04-24T19:33:47Z</time>
      </trkpt>
      <trkpt lat="42.94064" lon="1.96168">
        <ele>493</ele>
        <time>2023-04-24T19:33:52Z</time>
      </trkpt>
      <trkpt lat="42.94056" lon="1.96159">
        <ele>494</ele>
        <time>2023-04-24T19:33:58Z</time>
      </trkpt>
      <trkpt lat="42.94039" lon="1.96125">
        <ele>498</ele>
        <time>2023-04-24T19:34:13Z</time>
      </trkpt>
      <trkpt lat="42.94017" lon="1.96052">
        <ele>505</ele>
        <time>2023-04-24T19:34:42Z</time>
      </trkpt>
      <trkpt lat="42.94009" lon="1.95974">
        <ele>509</ele>
        <time>2023-04-24T19:35:10Z</time>
      </trkpt>
      <trkpt lat="42.94001" lon="1.95949">
        <ele>511</ele>
        <time>2023-04-24T19:35:20Z</time>
      </trkpt>
      <trkpt lat="42.93991" lon="1.95945">
        <ele>514</ele>
        <time>2023-04-24T19:35:26Z</time>
      </trkpt>
      <trkpt lat="42.93973" lon="1.95944">
        <ele>518</ele>
        <time>2023-04-24T19:35:35Z</time>
      </trkpt>
      <trkpt lat="42.93965" lon="1.95937">
        <ele>521</ele>
        <time>2023-04-24T19:35:39Z</time>
      </trkpt>
      <trkpt lat="42.9395" lon="1.95899">
        <ele>525</ele>
        <time>2023-04-24T19:35:55Z</time>
      </trkpt>
      <trkpt lat="42.93924" lon="1.95857">
        <ele>533</ele>
        <time>2023-04-24T19:36:15Z</time>
      </trkpt>
      <trkpt lat="42.93919" lon="1.95845">
        <ele>535</ele>
        <time>2023-04-24T19:36:20Z</time>
      </trkpt>
      <trkpt lat="42.93921" lon="1.9582">
        <ele>536</ele>
        <time>2023-04-24T19:36:30Z</time>
      </trkpt>
      <trkpt lat="42.93917" lon="1.95795">
        <ele>539</ele>
        <time>2023-04-24T19:36:39Z</time>
      </trkpt>
      <trkpt lat="42.93918" lon="1.95768">
        <ele>541</ele>
        <time>2023-04-24T19:36:49Z</time>
      </trkpt>
      <trkpt lat="42.93917" lon="1.95754">
        <ele>543</ele>
        <time>2023-04-24T19:36:54Z</time>
      </trkpt>
      <trkpt lat="42.9391" lon="1.95731">
        <ele>547</ele>
        <time>2023-04-24T19:37:03Z</time>
      </trkpt>
      <trkpt lat="42.93911" lon="1.95717">
        <ele>547</ele>
        <time>2023-04-24T19:37:08Z</time>
      </trkpt>
      <trkpt lat="42.93908" lon="1.95687">
        <ele>550</ele>
        <time>2023-04-24T19:37:19Z</time>
      </trkpt>
      <trkpt lat="42.93913" lon="1.95657">
        <ele>550</ele>
        <time>2023-04-24T19:37:31Z</time>
      </trkpt>
      <trkpt lat="42.93913" lon="1.95644">
        <ele>550</ele>
        <time>2023-04-24T19:37:35Z</time>
      </trkpt>
      <trkpt lat="42.93903" lon="1.95606">
        <ele>556</ele>
        <time>2023-04-24T19:37:50Z</time>
      </trkpt>
      <trkpt lat="42.93901" lon="1.95581">
        <ele>557</ele>
        <time>2023-04-24T19:37:59Z</time>
      </trkpt>
      <trkpt lat="42.93903" lon="1.95568">
        <ele>557</ele>
        <time>2023-04-24T19:38:04Z</time>
      </trkpt>
      <trkpt lat="42.93898" lon="1.95542">
        <ele>561</ele>
        <time>2023-04-24T19:38:14Z</time>
      </trkpt>
      <trkpt lat="42.93898" lon="1.95517">
        <ele>563</ele>
        <time>2023-04-24T19:38:23Z</time>
      </trkpt>
      <trkpt lat="42.93888" lon="1.9548">
        <ele>569</ele>
        <time>2023-04-24T19:38:38Z</time>
      </trkpt>
      <trkpt lat="42.93887" lon="1.95467">
        <ele>570</ele>
        <time>2023-04-24T19:38:43Z</time>
      </trkpt>
      <trkpt lat="42.93881" lon="1.95456">
        <ele>573</ele>
        <time>2023-04-24T19:38:48Z</time>
      </trkpt>
      <trkpt lat="42.93882" lon="1.95416">
        <ele>574</ele>
        <time>2023-04-24T19:39:02Z</time>
      </trkpt>
      <trkpt lat="42.93869" lon="1.9534">
        <ele>584</ele>
        <time>2023-04-24T19:39:31Z</time>
      </trkpt>
      <trkpt lat="42.93874" lon="1.95274">
        <ele>591</ele>
        <time>2023-04-24T19:39:55Z</time>
      </trkpt>
      <trkpt lat="42.93891" lon="1.95227">
        <ele>591</ele>
        <time>2023-04-24T19:40:14Z</time>
      </trkpt>
      <trkpt lat="42.93901" lon="1.95221">
        <ele>588</ele>
        <time>2023-04-24T19:40:20Z</time>
      </trkpt>
      <trkpt lat="42.9391" lon="1.9522">
        <ele>585</ele>
        <time>2023-04-24T19:40:24Z</time>
      </trkpt>
      <trkpt lat="42.93927" lon="1.95233">
        <ele>580</ele>
        <time>2023-04-24T19:40:34Z</time>
      </trkpt>
      <trkpt lat="42.93936" lon="1.95231">
        <ele>578</ele>
        <time>2023-04-24T19:40:39Z</time>
      </trkpt>
      <trkpt lat="42.93941" lon="1.95219">
        <ele>579</ele>
        <time>2023-04-24T19:40:44Z</time>
      </trkpt>
      <trkpt lat="42.93941" lon="1.95207">
        <ele>580</ele>
        <time>2023-04-24T19:40:48Z</time>
      </trkpt>
      <trkpt lat="42.9396" lon="1.95195">
        <ele>578</ele>
        <time>2023-04-24T19:40:59Z</time>
      </trkpt>
      <trkpt lat="42.93961" lon="1.95167">
        <ele>581</ele>
        <time>2023-04-24T19:41:09Z</time>
      </trkpt>
      <trkpt lat="42.93964" lon="1.95154">
        <ele>581</ele>
        <time>2023-04-24T19:41:14Z</time>
      </trkpt>
      <trkpt lat="42.9396" lon="1.95128">
        <ele>584</ele>
        <time>2023-04-24T19:41:24Z</time>
      </trkpt>
      <trkpt lat="42.93964" lon="1.95104">
        <ele>586</ele>
        <time>2023-04-24T19:41:33Z</time>
      </trkpt>
      <trkpt lat="42.93962" lon="1.9509">
        <ele>588</ele>
        <time>2023-04-24T19:41:38Z</time>
      </trkpt>
      <trkpt lat="42.93964" lon="1.95078">
        <ele>588</ele>
        <time>2023-04-24T19:41:42Z</time>
      </trkpt>
      <trkpt lat="42.93983" lon="1.95047">
        <ele>588</ele>
        <time>2023-04-24T19:41:57Z</time>
      </trkpt>
      <trkpt lat="42.9398" lon="1.95033">
        <ele>590</ele>
        <time>2023-04-24T19:42:02Z</time>
      </trkpt>
      <trkpt lat="42.93982" lon="1.9502">
        <ele>591</ele>
        <time>2023-04-24T19:42:07Z</time>
      </trkpt>
      <trkpt lat="42.93992" lon="1.94998">
        <ele>590</ele>
        <time>2023-04-24T19:42:17Z</time>
      </trkpt>
      <trkpt lat="42.94016" lon="1.94976">
        <ele>586</ele>
        <time>2023-04-24T19:42:31Z</time>
      </trkpt>
      <trkpt lat="42.94036" lon="1.94926">
        <ele>585</ele>
        <time>2023-04-24T19:42:52Z</time>
      </trkpt>
      <trkpt lat="42.94037" lon="1.94912">
        <ele>585</ele>
        <time>2023-04-24T19:42:57Z</time>
      </trkpt>
      <trkpt lat="42.94027" lon="1.94873">
        <ele>591</ele>
        <time>2023-04-24T19:43:12Z</time>
      </trkpt>
      <trkpt lat="42.94023" lon="1.94845">
        <ele>593</ele>
        <time>2023-04-24T19:43:23Z</time>
      </trkpt>
      <trkpt lat="42.94026" lon="1.94766">
        <ele>595</ele>
        <time>2023-04-24T19:43:52Z</time>
      </trkpt>
      <trkpt lat="42.94013" lon="1.94714">
        <ele>600</ele>
        <time>2023-04-24T19:44:12Z</time>
      </trkpt>
      <trkpt lat="42.94023" lon="1.94658">
        <ele>599</ele>
        <time>2023-04-24T19:44:33Z</time>
      </trkpt>
      <trkpt lat="42.94021" lon="1.94629">
        <ele>601</ele>
        <time>2023-04-24T19:44:44Z</time>
      </trkpt>
      <trkpt lat="42.9403" lon="1.94593">
        <ele>601</ele>
        <time>2023-04-24T19:44:58Z</time>
      </trkpt>
      <trkpt lat="42.94029" lon="1.94566">
        <ele>603</ele>
        <time>2023-04-24T19:45:08Z</time>
      </trkpt>
      <trkpt lat="42.94031" lon="1.94553">
        <ele>603</ele>
        <time>2023-04-24T19:45:13Z</time>
      </trkpt>
      <trkpt lat="42.94045" lon="1.94519">
        <ele>601</ele>
        <time>2023-04-24T19:45:27Z</time>
      </trkpt>
      <trkpt lat="42.94048" lon="1.94504">
        <ele>601</ele>
        <time>2023-04-24T19:45:32Z</time>
      </trkpt>
      <trkpt lat="42.94059" lon="1.94483">
        <ele>599</ele>
        <time>2023-04-24T19:45:42Z</time>
      </trkpt>
      <trkpt lat="42.94067" lon="1.94473">
        <ele>597</ele>
        <time>2023-04-24T19:45:47Z</time>
      </trkpt>
      <trkpt lat="42.94097" lon="1.94373">
        <ele>598</ele>
        <time>2023-04-24T19:46:27Z</time>
      </trkpt>
      <trkpt lat="42.94099" lon="1.94359">
        <ele>599</ele>
        <time>2023-04-24T19:46:32Z</time>
      </trkpt>
      <trkpt lat="42.94096" lon="1.94347">
        <ele>601</ele>
        <time>2023-04-24T19:46:37Z</time>
      </trkpt>
      <trkpt lat="42.94087" lon="1.94349">
        <ele>604</ele>
        <time>2023-04-24T19:46:41Z</time>
      </trkpt>
      <trkpt lat="42.94079" lon="1.94342">
        <ele>608</ele>
        <time>2023-04-24T19:46:46Z</time>
      </trkpt>
      <trkpt lat="42.94081" lon="1.94328">
        <ele>609</ele>
        <time>2023-04-24T19:46:51Z</time>
      </trkpt>
      <trkpt lat="42.9408" lon="1.94302">
        <ele>611</ele>
        <time>2023-04-24T19:47:01Z</time>
      </trkpt>
      <trkpt lat="42.94086" lon="1.94278">
        <ele>611</ele>
        <time>2023-04-24T19:47:10Z</time>
      </trkpt>
      <trkpt lat="42.94093" lon="1.94268">
        <ele>609</ele>
        <time>2023-04-24T19:47:15Z</time>
      </trkpt>
      <trkpt lat="42.941" lon="1.94244">
        <ele>609</ele>
        <time>2023-04-24T19:47:25Z</time>
      </trkpt>
      <trkpt lat="42.94099" lon="1.94231">
        <ele>610</ele>
        <time>2023-04-24T19:47:30Z</time>
      </trkpt>
      <trkpt lat="42.94105" lon="1.94206">
        <ele>611</ele>
        <time>2023-04-24T19:47:39Z</time>
      </trkpt>
      <trkpt lat="42.94113" lon="1.94196">
        <ele>609</ele>
        <time>2023-04-24T19:47:45Z</time>
      </trkpt>
      <trkpt lat="42.94132" lon="1.9419">
        <ele>602</ele>
        <time>2023-04-24T19:47:54Z</time>
      </trkpt>
      <trkpt lat="42.94133" lon="1.94148">
        <ele>606</ele>
        <time>2023-04-24T19:48:10Z</time>
      </trkpt>
      <trkpt lat="42.94146" lon="1.94099">
        <ele>606</ele>
        <time>2023-04-24T19:48:29Z</time>
      </trkpt>
      <trkpt lat="42.94146" lon="1.94086">
        <ele>607</ele>
        <time>2023-04-24T19:48:34Z</time>
      </trkpt>
      <trkpt lat="42.94151" lon="1.94061">
        <ele>607</ele>
        <time>2023-04-24T19:48:43Z</time>
      </trkpt>
      <trkpt lat="42.94146" lon="1.94049">
        <ele>610</ele>
        <time>2023-04-24T19:48:48Z</time>
      </trkpt>
      <trkpt lat="42.94144" lon="1.93983">
        <ele>616</ele>
        <time>2023-04-24T19:49:12Z</time>
      </trkpt>
      <trkpt lat="42.94148" lon="1.93971">
        <ele>615</ele>
        <time>2023-04-24T19:49:17Z</time>
      </trkpt>
      <trkpt lat="42.94159" lon="1.93905">
        <ele>612</ele>
        <time>2023-04-24T19:49:42Z</time>
      </trkpt>
      <trkpt lat="42.94153" lon="1.9385">
        <ele>618</ele>
        <time>2023-04-24T19:50:02Z</time>
      </trkpt>
      <trkpt lat="42.9416" lon="1.93825">
        <ele>615</ele>
        <time>2023-04-24T19:50:12Z</time>
      </trkpt>
      <trkpt lat="42.9416" lon="1.93799">
        <ele>616</ele>
        <time>2023-04-24T19:50:22Z</time>
      </trkpt>
      <trkpt lat="42.94179" lon="1.93767">
        <ele>608</ele>
        <time>2023-04-24T19:50:37Z</time>
      </trkpt>
      <trkpt lat="42.94179" lon="1.93753">
        <ele>608</ele>
        <time>2023-04-24T19:50:42Z</time>
      </trkpt>
      <trkpt lat="42.94176" lon="1.9374">
        <ele>610</ele>
        <time>2023-04-24T19:50:47Z</time>
      </trkpt>
      <trkpt lat="42.94178" lon="1.93727">
        <ele>611</ele>
        <time>2023-04-24T19:50:52Z</time>
      </trkpt>
      <trkpt lat="42.94189" lon="1.93702">
        <ele>609</ele>
        <time>2023-04-24T19:51:02Z</time>
      </trkpt>
      <trkpt lat="42.94205" lon="1.93612">
        <ele>613</ele>
        <time>2023-04-24T19:51:36Z</time>
      </trkpt>
      <trkpt lat="42.94205" lon="1.93599">
        <ele>614</ele>
        <time>2023-04-24T19:51:41Z</time>
      </trkpt>
      <trkpt lat="42.94213" lon="1.93575">
        <ele>612</ele>
        <time>2023-04-24T19:51:51Z</time>
      </trkpt>
      <trkpt lat="42.94213" lon="1.93547">
        <ele>615</ele>
        <time>2023-04-24T19:52:01Z</time>
      </trkpt>
      <trkpt lat="42.94236" lon="1.93476">
        <ele>607</ele>
        <time>2023-04-24T19:52:30Z</time>
      </trkpt>
      <trkpt lat="42.94237" lon="1.93463">
        <ele>607</ele>
        <time>2023-04-24T19:52:34Z</time>
      </trkpt>
      <trkpt lat="42.94229" lon="1.93424">
        <ele>613</ele>
        <time>2023-04-24T19:52:49Z</time>
      </trkpt>
      <trkpt lat="42.94233" lon="1.9341">
        <ele>612</ele>
        <time>2023-04-24T19:52:55Z</time>
      </trkpt>
      <trkpt lat="42.94239" lon="1.934">
        <ele>609</ele>
        <time>2023-04-24T19:52:59Z</time>
      </trkpt>
      <trkpt lat="42.94241" lon="1.93373">
        <ele>610</ele>
        <time>2023-04-24T19:53:09Z</time>
      </trkpt>
      <trkpt lat="42.94245" lon="1.9336">
        <ele>609</ele>
        <time>2023-04-24T19:53:14Z</time>
      </trkpt>
      <trkpt lat="42.9426" lon="1.93327">
        <ele>604</ele>
        <time>2023-04-24T19:53:29Z</time>
      </trkpt>
      <trkpt lat="42.94259" lon="1.93314">
        <ele>606</ele>
        <time>2023-04-24T19:53:33Z</time>
      </trkpt>
      <trkpt lat="42.94267" lon="1.93275">
        <ele>607</ele>
        <time>2023-04-24T19:53:48Z</time>
      </trkpt>
      <trkpt lat="42.94266" lon="1.93235">
        <ele>611</ele>
        <time>2023-04-24T19:54:03Z</time>
      </trkpt>
      <trkpt lat="42.94273" lon="1.93166">
        <ele>613</ele>
        <time>2023-04-24T19:54:29Z</time>
      </trkpt>
      <trkpt lat="42.94301" lon="1.9309">
        <ele>606</ele>
        <time>2023-04-24T19:55:00Z</time>
      </trkpt>
      <trkpt lat="42.94314" lon="1.93038">
        <ele>604</ele>
        <time>2023-04-24T19:55:20Z</time>
      </trkpt>
      <trkpt lat="42.9432" lon="1.93027">
        <ele>602</ele>
        <time>2023-04-24T19:55:25Z</time>
      </trkpt>
      <trkpt lat="42.94338" lon="1.93006">
        <ele>592</ele>
        <time>2023-04-24T19:55:37Z</time>
      </trkpt>
      <trkpt lat="42.94359" lon="1.92956">
        <ele>584</ele>
        <time>2023-04-24T19:55:58Z</time>
      </trkpt>
      <trkpt lat="42.94363" lon="1.9293">
        <ele>583</ele>
        <time>2023-04-24T19:56:08Z</time>
      </trkpt>
      <trkpt lat="42.94378" lon="1.92877">
        <ele>580</ele>
        <time>2023-04-24T19:56:28Z</time>
      </trkpt>
      <trkpt lat="42.94376" lon="1.92863">
        <ele>582</ele>
        <time>2023-04-24T19:56:34Z</time>
      </trkpt>
      <trkpt lat="42.94379" lon="1.92824">
        <ele>585</ele>
        <time>2023-04-24T19:56:48Z</time>
      </trkpt>
      <trkpt lat="42.94384" lon="1.92799">
        <ele>585</ele>
        <time>2023-04-24T19:56:57Z</time>
      </trkpt>
      <trkpt lat="42.94393" lon="1.92773">
        <ele>582</ele>
        <time>2023-04-24T19:57:08Z</time>
      </trkpt>
      <trkpt lat="42.94417" lon="1.92726">
        <ele>574</ele>
        <time>2023-04-24T19:57:29Z</time>
      </trkpt>
      <trkpt lat="42.94431" lon="1.92704">
        <ele>571</ele>
        <time>2023-04-24T19:57:40Z</time>
      </trkpt>
      <trkpt lat="42.94448" lon="1.92684">
        <ele>567</ele>
        <time>2023-04-24T19:57:51Z</time>
      </trkpt>
      <trkpt lat="42.94453" lon="1.92671">
        <ele>567</ele>
        <time>2023-04-24T19:57:56Z</time>
      </trkpt>
      <trkpt lat="42.94474" lon="1.92641">
        <ele>560</ele>
        <time>2023-04-24T19:58:11Z</time>
      </trkpt>
      <trkpt lat="42.94501" lon="1.9262">
        <ele>551</ele>
        <time>2023-04-24T19:58:27Z</time>
      </trkpt>
      <trkpt lat="42.94511" lon="1.92619">
        <ele>548</ele>
        <time>2023-04-24T19:58:32Z</time>
      </trkpt>
      <trkpt lat="42.94499" lon="1.92585">
        <ele>552</ele>
        <time>2023-04-24T19:58:46Z</time>
      </trkpt>
      <trkpt lat="42.94482" lon="1.92551">
        <ele>558</ele>
        <time>2023-04-24T19:59:01Z</time>
      </trkpt>
      <trkpt lat="42.94475" lon="1.92527">
        <ele>561</ele>
        <time>2023-04-24T19:59:10Z</time>
      </trkpt>
      <trkpt lat="42.94476" lon="1.92501">
        <ele>560</ele>
        <time>2023-04-24T19:59:20Z</time>
      </trkpt>
      <trkpt lat="42.94473" lon="1.92488">
        <ele>562</ele>
        <time>2023-04-24T19:59:25Z</time>
      </trkpt>
      <trkpt lat="42.94475" lon="1.92475">
        <ele>562</ele>
        <time>2023-04-24T19:59:30Z</time>
      </trkpt>
      <trkpt lat="42.94472" lon="1.92463">
        <ele>564</ele>
        <time>2023-04-24T19:59:34Z</time>
      </trkpt>
      <trkpt lat="42.9447" lon="1.92424">
        <ele>568</ele>
        <time>2023-04-24T19:59:49Z</time>
      </trkpt>
      <trkpt lat="42.94464" lon="1.92397">
        <ele>573</ele>
        <time>2023-04-24T19:59:59Z</time>
      </trkpt>
      <trkpt lat="42.94471" lon="1.92372">
        <ele>572</ele>
        <time>2023-04-24T20:00:09Z</time>
      </trkpt>
      <trkpt lat="42.9447" lon="1.92345">
        <ele>575</ele>
        <time>2023-04-24T20:00:19Z</time>
      </trkpt>
      <trkpt lat="42.94467" lon="1.92333">
        <ele>578</ele>
        <time>2023-04-24T20:00:23Z</time>
      </trkpt>
      <trkpt lat="42.9447" lon="1.92296">
        <ele>579</ele>
        <time>2023-04-24T20:00:37Z</time>
      </trkpt>
      <trkpt lat="42.94464" lon="1.92285">
        <ele>583</ele>
        <time>2023-04-24T20:00:42Z</time>
      </trkpt>
      <trkpt lat="42.94447" lon="1.92236">
        <ele>598</ele>
        <time>2023-04-24T20:01:02Z</time>
      </trkpt>
      <trkpt lat="42.94446" lon="1.92223">
        <ele>600</ele>
        <time>2023-04-24T20:01:07Z</time>
      </trkpt>
      <trkpt lat="42.9444" lon="1.92213">
        <ele>604</ele>
        <time>2023-04-24T20:01:11Z</time>
      </trkpt>
      <trkpt lat="42.94436" lon="1.92187">
        <ele>610</ele>
        <time>2023-04-24T20:01:21Z</time>
      </trkpt>
      <trkpt lat="42.94426" lon="1.92188">
        <ele>616</ele>
        <time>2023-04-24T20:01:26Z</time>
      </trkpt>
      <trkpt lat="42.94417" lon="1.92184">
        <ele>621</ele>
        <time>2023-04-24T20:01:31Z</time>
      </trkpt>
      <trkpt lat="42.94411" lon="1.92194">
        <ele>624</ele>
        <time>2023-04-24T20:01:36Z</time>
      </trkpt>
      <trkpt lat="42.94403" lon="1.92186">
        <ele>631</ele>
        <time>2023-04-24T20:01:41Z</time>
      </trkpt>
      <trkpt lat="42.94394" lon="1.92183">
        <ele>637</ele>
        <time>2023-04-24T20:01:45Z</time>
      </trkpt>
      <trkpt lat="42.94376" lon="1.92182">
        <ele>650</ele>
        <time>2023-04-24T20:01:54Z</time>
      </trkpt>
      <trkpt lat="42.94367" lon="1.92188">
        <ele>655</ele>
        <time>2023-04-24T20:01:59Z</time>
      </trkpt>
      <trkpt lat="42.94361" lon="1.92198">
        <ele>658</ele>
        <time>2023-04-24T20:02:04Z</time>
      </trkpt>
      <trkpt lat="42.94353" lon="1.92202">
        <ele>663</ele>
        <time>2023-04-24T20:02:08Z</time>
      </trkpt>
      <trkpt lat="42.94344" lon="1.92202">
        <ele>670</ele>
        <time>2023-04-24T20:02:13Z</time>
      </trkpt>
      <trkpt lat="42.94335" lon="1.92195">
        <ele>677</ele>
        <time>2023-04-24T20:02:18Z</time>
      </trkpt>
      <trkpt lat="42.94325" lon="1.92173">
        <ele>684</ele>
        <time>2023-04-24T20:02:28Z</time>
      </trkpt>
      <trkpt lat="42.943" lon="1.9219">
        <ele>694</ele>
        <time>2023-04-24T20:02:41Z</time>
      </trkpt>
      <trkpt lat="42.94294" lon="1.92199">
        <ele>696</ele>
        <time>2023-04-24T20:02:46Z</time>
      </trkpt>
      <trkpt lat="42.94286" lon="1.92205">
        <ele>700</ele>
        <time>2023-04-24T20:02:51Z</time>
      </trkpt>
      <trkpt lat="42.94277" lon="1.92207">
        <ele>704</ele>
        <time>2023-04-24T20:02:55Z</time>
      </trkpt>
      <trkpt lat="42.94262" lon="1.92224">
        <ele>711</ele>
        <time>2023-04-24T20:03:05Z</time>
      </trkpt>
      <trkpt lat="42.94253" lon="1.92226">
        <ele>715</ele>
        <time>2023-04-24T20:03:09Z</time>
      </trkpt>
      <trkpt lat="42.94221" lon="1.92197">
        <ele>710</ele>
        <time>2023-04-24T20:03:29Z</time>
      </trkpt>
      <trkpt lat="42.94217" lon="1.92172">
        <ele>709</ele>
        <time>2023-04-24T20:03:38Z</time>
      </trkpt>
      <trkpt lat="42.94219" lon="1.9216">
        <ele>709</ele>
        <time>2023-04-24T20:03:42Z</time>
      </trkpt>
      <trkpt lat="42.94233" lon="1.92141">
        <ele>712</ele>
        <time>2023-04-24T20:03:52Z</time>
      </trkpt>
      <trkpt lat="42.94239" lon="1.92115">
        <ele>713</ele>
        <time>2023-04-24T20:04:02Z</time>
      </trkpt>
      <trkpt lat="42.94248" lon="1.92108">
        <ele>716</ele>
        <time>2023-04-24T20:04:08Z</time>
      </trkpt>
      <trkpt lat="42.94247" lon="1.92096">
        <ele>715</ele>
        <time>2023-04-24T20:04:12Z</time>
      </trkpt>
      <trkpt lat="42.94237" lon="1.92073">
        <ele>711</ele>
        <time>2023-04-24T20:04:22Z</time>
      </trkpt>
      <trkpt lat="42.94225" lon="1.92054">
        <ele>705</ele>
        <time>2023-04-24T20:04:31Z</time>
      </trkpt>
      <trkpt lat="42.94216" lon="1.9205">
        <ele>701</ele>
        <time>2023-04-24T20:04:36Z</time>
      </trkpt>
      <trkpt lat="42.94208" lon="1.92042">
        <ele>697</ele>
        <time>2023-04-24T20:04:41Z</time>
      </trkpt>
      <trkpt lat="42.94205" lon="1.9203">
        <ele>695</ele>
        <time>2023-04-24T20:04:45Z</time>
      </trkpt>
      <trkpt lat="42.94208" lon="1.92005">
        <ele>694</ele>
        <time>2023-04-24T20:04:55Z</time>
      </trkpt>
      <trkpt lat="42.94206" lon="1.91993">
        <ele>692</ele>
        <time>2023-04-24T20:04:59Z</time>
      </trkpt>
      <trkpt lat="42.94199" lon="1.91982">
        <ele>687</ele>
        <time>2023-04-24T20:05:04Z</time>
      </trkpt>
      <trkpt lat="42.94198" lon="1.91969">
        <ele>685</ele>
        <time>2023-04-24T20:05:09Z</time>
      </trkpt>
      <trkpt lat="42.94193" lon="1.91959">
        <ele>681</ele>
        <time>2023-04-24T20:05:14Z</time>
      </trkpt>
      <trkpt lat="42.94176" lon="1.91949">
        <ele>673</ele>
        <time>2023-04-24T20:05:23Z</time>
      </trkpt>
      <trkpt lat="42.94173" lon="1.91909">
        <ele>665</ele>
        <time>2023-04-24T20:05:38Z</time>
      </trkpt>
      <trkpt lat="42.94178" lon="1.91897">
        <ele>665</ele>
        <time>2023-04-24T20:05:43Z</time>
      </trkpt>
      <trkpt lat="42.94214" lon="1.91849">
        <ele>670</ele>
        <time>2023-04-24T20:06:08Z</time>
      </trkpt>
      <trkpt lat="42.94221" lon="1.91821">
        <ele>667</ele>
        <time>2023-04-24T20:06:19Z</time>
      </trkpt>
      <trkpt lat="42.94226" lon="1.9181">
        <ele>666</ele>
        <time>2023-04-24T20:06:23Z</time>
      </trkpt>
      <trkpt lat="42.94226" lon="1.91785">
        <ele>661</ele>
        <time>2023-04-24T20:06:33Z</time>
      </trkpt>
      <trkpt lat="42.94217" lon="1.91779">
        <ele>657</ele>
        <time>2023-04-24T20:06:38Z</time>
      </trkpt>
      <trkpt lat="42.942" lon="1.91787">
        <ele>652</ele>
        <time>2023-04-24T20:06:47Z</time>
      </trkpt>
      <trkpt lat="42.94192" lon="1.91781">
        <ele>648</ele>
        <time>2023-04-24T20:06:51Z</time>
      </trkpt>
      <trkpt lat="42.94158" lon="1.91831">
        <ele>646</ele>
        <time>2023-04-24T20:07:16Z</time>
      </trkpt>
      <trkpt lat="42.94141" lon="1.91846">
        <ele>643</ele>
        <time>2023-04-24T20:07:26Z</time>
      </trkpt>
      <trkpt lat="42.94125" lon="1.91865">
        <ele>641</ele>
        <time>2023-04-24T20:07:37Z</time>
      </trkpt>
      <trkpt lat="42.94119" lon="1.91856">
        <ele>638</ele>
        <time>2023-04-24T20:07:41Z</time>
      </trkpt>
      <trkpt lat="42.94122" lon="1.91845">
        <ele>637</ele>
        <time>2023-04-24T20:07:46Z</time>
      </trkpt>
      <trkpt lat="42.94117" lon="1.91832">
        <ele>634</ele>
        <time>2023-04-24T20:07:51Z</time>
      </trkpt>
      <trkpt lat="42.94101" lon="1.91821">
        <ele>628</ele>
        <time>2023-04-24T20:08:00Z</time>
      </trkpt>
      <trkpt lat="42.94085" lon="1.91788">
        <ele>621</ele>
        <time>2023-04-24T20:08:15Z</time>
      </trkpt>
      <trkpt lat="42.9409" lon="1.9176">
        <ele>619</ele>
        <time>2023-04-24T20:08:25Z</time>
      </trkpt>
      <trkpt lat="42.94088" lon="1.91754">
        <ele>618</ele>
        <time>2023-04-24T20:08:28Z</time>
      </trkpt>
      <trkpt lat="42.94012" lon="1.91687">
        <ele>603</ele>
        <time>2023-04-24T20:09:13Z</time>
      </trkpt>
      <trkpt lat="42.94003" lon="1.91688">
        <ele>602</ele>
        <time>2023-04-24T20:09:17Z</time>
      </trkpt>
      <trkpt lat="42.93965" lon="1.91708">
        <ele>596</ele>
        <time>2023-04-24T20:09:38Z</time>
      </trkpt>
      <trkpt lat="42.93972" lon="1.91636">
        <ele>598</ele>
        <time>2023-04-24T20:10:04Z</time>
      </trkpt>
      <trkpt lat="42.93972" lon="1.91588">
        <ele>599</ele>
        <time>2023-04-24T20:10:22Z</time>
      </trkpt>
      <trkpt lat="42.9398" lon="1.91559">
        <ele>599</ele>
        <time>2023-04-24T20:10:33Z</time>
      </trkpt>
      <trkpt lat="42.94004" lon="1.91491">
        <ele>599</ele>
        <time>2023-04-24T20:11:01Z</time>
      </trkpt>
      <trkpt lat="42.94031" lon="1.91442">
        <ele>596</ele>
        <time>2023-04-24T20:11:23Z</time>
      </trkpt>
      <trkpt lat="42.94038" lon="1.91401">
        <ele>593</ele>
        <time>2023-04-24T20:11:39Z</time>
      </trkpt>
      <trkpt lat="42.94045" lon="1.91381">
        <ele>590</ele>
        <time>2023-04-24T20:11:47Z</time>
      </trkpt>
      <trkpt lat="42.94053" lon="1.91365">
        <ele>589</ele>
        <time>2023-04-24T20:11:54Z</time>
      </trkpt>
      <trkpt lat="42.94064" lon="1.9135">
        <ele>588</ele>
        <time>2023-04-24T20:12:02Z</time>
      </trkpt>
      <trkpt lat="42.94067" lon="1.91341">
        <ele>587</ele>
        <time>2023-04-24T20:12:05Z</time>
      </trkpt>
      <trkpt lat="42.94076" lon="1.91268">
        <ele>574</ele>
        <time>2023-04-24T20:12:33Z</time>
      </trkpt>
      <trkpt lat="42.94072" lon="1.91227">
        <ele>569</ele>
        <time>2023-04-24T20:12:48Z</time>
      </trkpt>
      <trkpt lat="42.94076" lon="1.91221">
        <ele>569</ele>
        <time>2023-04-24T20:12:51Z</time>
      </trkpt>
      <trkpt lat="42.94075" lon="1.91162">
        <ele>566</ele>
        <time>2023-04-24T20:13:12Z</time>
      </trkpt>
      <trkpt lat="42.94078" lon="1.9114">
        <ele>565</ele>
        <time>2023-04-24T20:13:20Z</time>
      </trkpt>
      <trkpt lat="42.94083" lon="1.91134">
        <ele>566</ele>
        <time>2023-04-24T20:13:24Z</time>
      </trkpt>
      <trkpt lat="42.94103" lon="1.91083">
        <ele>562</ele>
        <time>2023-04-24T20:13:45Z</time>
      </trkpt>
      <trkpt lat="42.94124" lon="1.91051">
        <ele>558</ele>
        <time>2023-04-24T20:14:01Z</time>
      </trkpt>
      <trkpt lat="42.94137" lon="1.91042">
        <ele>556</ele>
        <time>2023-04-24T20:14:08Z</time>
      </trkpt>
      <trkpt lat="42.94163" lon="1.90965">
        <ele>548</ele>
        <time>2023-04-24T20:14:39Z</time>
      </trkpt>
      <trkpt lat="42.9417" lon="1.90957">
        <ele>547</ele>
        <time>2023-04-24T20:14:44Z</time>
      </trkpt>
      <trkpt lat="42.9421" lon="1.90936">
        <ele>544</ele>
        <time>2023-04-24T20:15:05Z</time>
      </trkpt>
      <trkpt lat="42.94223" lon="1.90912">
        <ele>542</ele>
        <time>2023-04-24T20:15:16Z</time>
      </trkpt>
      <trkpt lat="42.94233" lon="1.90804">
        <ele>537</ele>
        <time>2023-04-24T20:15:56Z</time>
      </trkpt>
      <trkpt lat="42.94271" lon="1.90712">
        <ele>529</ele>
        <time>2023-04-24T20:16:35Z</time>
      </trkpt>
      <trkpt lat="42.94294" lon="1.90683">
        <ele>523</ele>
        <time>2023-04-24T20:16:50Z</time>
      </trkpt>
      <trkpt lat="42.94315" lon="1.90674">
        <ele>522</ele>
        <time>2023-04-24T20:17:01Z</time>
      </trkpt>
      <trkpt lat="42.94334" lon="1.90655">
        <ele>517</ele>
        <time>2023-04-24T20:17:13Z</time>
      </trkpt>
      <trkpt lat="42.94359" lon="1.90616">
        <ele>511</ele>
        <time>2023-04-24T20:17:32Z</time>
      </trkpt>
      <trkpt lat="42.94407" lon="1.90529">
        <ele>495</ele>
        <time>2023-04-24T20:18:12Z</time>
      </trkpt>
      <trkpt lat="42.94458" lon="1.90423">
        <ele>472</ele>
        <time>2023-04-24T20:18:58Z</time>
      </trkpt>
      <trkpt lat="42.94474" lon="1.90409">
        <ele>471</ele>
        <time>2023-04-24T20:19:08Z</time>
      </trkpt>
      <trkpt lat="42.94493" lon="1.90399">
        <ele>471</ele>
        <time>2023-04-24T20:19:18Z</time>
      </trkpt>
      <trkpt lat="42.94527" lon="1.90368">
        <ele>464</ele>
        <time>2023-04-24T20:19:39Z</time>
      </trkpt>
      <trkpt lat="42.94554" lon="1.90337">
        <ele>457</ele>
        <time>2023-04-24T20:19:56Z</time>
      </trkpt>
      <trkpt lat="42.94586" lon="1.90284">
        <ele>451</ele>
        <time>2023-04-24T20:20:21Z</time>
      </trkpt>
      <trkpt lat="42.94594" lon="1.90262">
        <ele>449</ele>
        <time>2023-04-24T20:20:30Z</time>
      </trkpt>
      <trkpt lat="42.94624" lon="1.90264">
        <ele>450</ele>
        <time>2023-04-24T20:20:45Z</time>
      </trkpt>
      <trkpt lat="42.94646" lon="1.90279">
        <ele>451</ele>
        <time>2023-04-24T20:20:58Z</time>
      </trkpt>
      <trkpt lat="42.94663" lon="1.90296">
        <ele>452</ele>
        <time>2023-04-24T20:21:08Z</time>
      </trkpt>
      <trkpt lat="42.94669" lon="1.90299">
        <ele>452</ele>
        <time>2023-04-24T20:21:11Z</time>
      </trkpt>
      <trkpt lat="42.94699" lon="1.90299">
        <ele>454</ele>
        <time>2023-04-24T20:21:26Z</time>
      </trkpt>
      <trkpt lat="42.94709" lon="1.90314">
        <ele>454</ele>
        <time>2023-04-24T20:21:34Z</time>
      </trkpt>
      <trkpt lat="42.94726" lon="1.90421">
        <ele>457</ele>
        <time>2023-04-24T20:22:14Z</time>
      </trkpt>
      <trkpt lat="42.94709" lon="1.90508">
        <ele>462</ele>
        <time>2023-04-24T20:22:47Z</time>
      </trkpt>
      <trkpt lat="42.9471" lon="1.90538">
        <ele>462</ele>
        <time>2023-04-24T20:22:58Z</time>
      </trkpt>
      <trkpt lat="42.94703" lon="1.90584">
        <ele>465</ele>
        <time>2023-04-24T20:23:15Z</time>
      </trkpt>
      <trkpt lat="42.94704" lon="1.90597">
        <ele>467</ele>
        <time>2023-04-24T20:23:20Z</time>
      </trkpt>
      <trkpt lat="42.94709" lon="1.90609">
        <ele>467</ele>
        <time>2023-04-24T20:23:25Z</time>
      </trkpt>
      <trkpt lat="42.94726" lon="1.90623">
        <ele>462</ele>
        <time>2023-04-24T20:23:35Z</time>
      </trkpt>
      <trkpt lat="42.94742" lon="1.90641">
        <ele>456</ele>
        <time>2023-04-24T20:23:45Z</time>
      </trkpt>
      <trkpt lat="42.94807" lon="1.90696">
        <ele>451</ele>
        <time>2023-04-24T20:24:24Z</time>
      </trkpt>
      <trkpt lat="42.94836" lon="1.90709">
        <ele>446</ele>
        <time>2023-04-24T20:24:39Z</time>
      </trkpt>
      <trkpt lat="42.94902" lon="1.90759">
        <ele>443</ele>
        <time>2023-04-24T20:25:17Z</time>
      </trkpt>
      <trkpt lat="42.94954" lon="1.90783">
        <ele>440</ele>
        <time>2023-04-24T20:25:44Z</time>
      </trkpt>
      <trkpt lat="42.94972" lon="1.90789">
        <ele>439</ele>
        <time>2023-04-24T20:25:53Z</time>
      </trkpt>
      <trkpt lat="42.95003" lon="1.90795">
        <ele>436</ele>
        <time>2023-04-24T20:26:09Z</time>
      </trkpt>
      <trkpt lat="42.95037" lon="1.90832">
        <ele>435</ele>
        <time>2023-04-24T20:26:31Z</time>
      </trkpt>
      <trkpt lat="42.95008" lon="1.90923">
        <ele>438</ele>
        <time>2023-04-24T20:27:07Z</time>
      </trkpt>
      <trkpt lat="42.94998" lon="1.90946">
        <ele>441</ele>
        <time>2023-04-24T20:27:17Z</time>
      </trkpt>
      <trkpt lat="42.94958" lon="1.90987">
        <ele>454</ele>
        <time>2023-04-24T20:27:42Z</time>
      </trkpt>
      <trkpt lat="42.94948" lon="1.9101">
        <ele>458</ele>
        <time>2023-04-24T20:27:52Z</time>
      </trkpt>
      <trkpt lat="42.94926" lon="1.91036">
        <ele>463</ele>
        <time>2023-04-24T20:28:06Z</time>
      </trkpt>
      <trkpt lat="42.94917" lon="1.91037">
        <ele>465</ele>
        <time>2023-04-24T20:28:11Z</time>
      </trkpt>
      <trkpt lat="42.94903" lon="1.91004">
        <ele>469</ele>
        <time>2023-04-24T20:28:25Z</time>
      </trkpt>
      <trkpt lat="42.94896" lon="1.90996">
        <ele>470</ele>
        <time>2023-04-24T20:28:29Z</time>
      </trkpt>
      <trkpt lat="42.94877" lon="1.90989">
        <ele>475</ele>
        <time>2023-04-24T20:28:39Z</time>
      </trkpt>
      <trkpt lat="42.94867" lon="1.90988">
        <ele>478</ele>
        <time>2023-04-24T20:28:44Z</time>
      </trkpt>
      <trkpt lat="42.94858" lon="1.90991">
        <ele>481</ele>
        <time>2023-04-24T20:28:49Z</time>
      </trkpt>
      <trkpt lat="42.9484" lon="1.91002">
        <ele>487</ele>
        <time>2023-04-24T20:28:59Z</time>
      </trkpt>
      <trkpt lat="42.94832" lon="1.9101">
        <ele>490</ele>
        <time>2023-04-24T20:29:04Z</time>
      </trkpt>
      <trkpt lat="42.94823" lon="1.9101">
        <ele>494</ele>
        <time>2023-04-24T20:29:08Z</time>
      </trkpt>
      <trkpt lat="42.94804" lon="1.90979">
        <ele>498</ele>
        <time>2023-04-24T20:29:23Z</time>
      </trkpt>
      <trkpt lat="42.94799" lon="1.90954">
        <ele>498</ele>
        <time>2023-04-24T20:29:33Z</time>
      </trkpt>
      <trkpt lat="42.94793" lon="1.90963">
        <ele>501</ele>
        <time>2023-04-24T20:29:37Z</time>
      </trkpt>
      <trkpt lat="42.9479" lon="1.90975">
        <ele>503</ele>
        <time>2023-04-24T20:29:42Z</time>
      </trkpt>
      <trkpt lat="42.94791" lon="1.90988">
        <ele>504</ele>
        <time>2023-04-24T20:29:46Z</time>
      </trkpt>
      <trkpt lat="42.94789" lon="1.91">
        <ele>506</ele>
        <time>2023-04-24T20:29:51Z</time>
      </trkpt>
      <trkpt lat="42.94784" lon="1.91011">
        <ele>508</ele>
        <time>2023-04-24T20:29:56Z</time>
      </trkpt>
      <trkpt lat="42.94777" lon="1.91048">
        <ele>512</ele>
        <time>2023-04-24T20:30:10Z</time>
      </trkpt>
      <trkpt lat="42.94775" lon="1.91074">
        <ele>513</ele>
        <time>2023-04-24T20:30:19Z</time>
      </trkpt>
      <trkpt lat="42.94778" lon="1.91087">
        <ele>512</ele>
        <time>2023-04-24T20:30:24Z</time>
      </trkpt>
      <trkpt lat="42.94755" lon="1.91186">
        <ele>522</ele>
        <time>2023-04-24T20:31:02Z</time>
      </trkpt>
      <trkpt lat="42.94752" lon="1.91212">
        <ele>523</ele>
        <time>2023-04-24T20:31:12Z</time>
      </trkpt>
      <trkpt lat="42.9474" lon="1.91247">
        <ele>527</ele>
        <time>2023-04-24T20:31:26Z</time>
      </trkpt>
      <trkpt lat="42.94739" lon="1.9126">
        <ele>528</ele>
        <time>2023-04-24T20:31:31Z</time>
      </trkpt>
      <trkpt lat="42.94732" lon="1.91269">
        <ele>530</ele>
        <time>2023-04-24T20:31:36Z</time>
      </trkpt>
      <trkpt lat="42.94723" lon="1.91305">
        <ele>533</ele>
        <time>2023-04-24T20:31:50Z</time>
      </trkpt>
      <trkpt lat="42.94714" lon="1.91328">
        <ele>537</ele>
        <time>2023-04-24T20:31:59Z</time>
      </trkpt>
      <trkpt lat="42.9471" lon="1.91353">
        <ele>538</ele>
        <time>2023-04-24T20:32:09Z</time>
      </trkpt>
      <trkpt lat="42.94697" lon="1.91387">
        <ele>543</ele>
        <time>2023-04-24T20:32:23Z</time>
      </trkpt>
      <trkpt lat="42.94702" lon="1.91439">
        <ele>542</ele>
        <time>2023-04-24T20:32:42Z</time>
      </trkpt>
      <trkpt lat="42.94698" lon="1.91524">
        <ele>545</ele>
        <time>2023-04-24T20:33:13Z</time>
      </trkpt>
      <trkpt lat="42.94678" lon="1.91619">
        <ele>548</ele>
        <time>2023-04-24T20:33:49Z</time>
      </trkpt>
      <trkpt lat="42.94679" lon="1.91632">
        <ele>546</ele>
        <time>2023-04-24T20:33:54Z</time>
      </trkpt>
      <trkpt lat="42.94672" lon="1.91658">
        <ele>547</ele>
        <time>2023-04-24T20:34:04Z</time>
      </trkpt>
      <trkpt lat="42.9466" lon="1.91728">
        <ele>547</ele>
        <time>2023-04-24T20:34:31Z</time>
      </trkpt>
      <trkpt lat="42.94657" lon="1.91767">
        <ele>546</ele>
        <time>2023-04-24T20:34:45Z</time>
      </trkpt>
      <trkpt lat="42.94645" lon="1.91812">
        <ele>547</ele>
        <time>2023-04-24T20:35:02Z</time>
      </trkpt>
      <trkpt lat="42.94627" lon="1.91936">
        <ele>545</ele>
        <time>2023-04-24T20:35:49Z</time>
      </trkpt>
      <trkpt lat="42.94643" lon="1.91998">
        <ele>535</ele>
        <time>2023-04-24T20:36:13Z</time>
      </trkpt>
      <trkpt lat="42.94681" lon="1.9201">
        <ele>523</ele>
        <time>2023-04-24T20:36:32Z</time>
      </trkpt>
      <trkpt lat="42.94692" lon="1.9203">
        <ele>519</ele>
        <time>2023-04-24T20:36:41Z</time>
      </trkpt>
      <trkpt lat="42.94696" lon="1.92056">
        <ele>517</ele>
        <time>2023-04-24T20:36:51Z</time>
      </trkpt>
      <trkpt lat="42.94711" lon="1.92073">
        <ele>513</ele>
        <time>2023-04-24T20:37:01Z</time>
      </trkpt>
      <trkpt lat="42.94728" lon="1.92081">
        <ele>510</ele>
        <time>2023-04-24T20:37:10Z</time>
      </trkpt>
      <trkpt lat="42.94748" lon="1.9208">
        <ele>505</ele>
        <time>2023-04-24T20:37:20Z</time>
      </trkpt>
      <trkpt lat="42.94771" lon="1.92094">
        <ele>501</ele>
        <time>2023-04-24T20:37:33Z</time>
      </trkpt>
      <trkpt lat="42.94778" lon="1.92095">
        <ele>499</ele>
        <time>2023-04-24T20:37:36Z</time>
      </trkpt>
      <trkpt lat="42.94808" lon="1.9212">
        <ele>493</ele>
        <time>2023-04-24T20:37:54Z</time>
      </trkpt>
      <trkpt lat="42.94825" lon="1.92128">
        <ele>490</ele>
        <time>2023-04-24T20:38:03Z</time>
      </trkpt>
      <trkpt lat="42.94938" lon="1.92155">
        <ele>480</ele>
        <time>2023-04-24T20:39:00Z</time>
      </trkpt>
      <trkpt lat="42.94951" lon="1.92161">
        <ele>481</ele>
        <time>2023-04-24T20:39:07Z</time>
      </trkpt>
      <trkpt lat="42.94991" lon="1.92189">
        <ele>482</ele>
        <time>2023-04-24T20:39:29Z</time>
      </trkpt>
      <trkpt lat="42.95023" lon="1.92205">
        <ele>479</ele>
        <time>2023-04-24T20:39:47Z</time>
      </trkpt>
      <trkpt lat="42.9505" lon="1.92204">
        <ele>478</ele>
        <time>2023-04-24T20:40:00Z</time>
      </trkpt>
      <trkpt lat="42.95085" lon="1.92195">
        <ele>478</ele>
        <time>2023-04-24T20:40:18Z</time>
      </trkpt>
      <trkpt lat="42.9505" lon="1.92204">
        <ele>478</ele>
        <time>2023-04-24T20:40:36Z</time>
      </trkpt>
      <trkpt lat="42.95023" lon="1.92205">
        <ele>479</ele>
        <time>2023-04-24T20:40:49Z</time>
      </trkpt>
      <trkpt lat="42.94997" lon="1.92192">
        <ele>482</ele>
        <time>2023-04-24T20:41:03Z</time>
      </trkpt>
      <trkpt lat="42.95004" lon="1.92165">
        <ele>486</ele>
        <time>2023-04-24T20:41:14Z</time>
      </trkpt>
      <trkpt lat="42.95005" lon="1.92152">
        <ele>486</ele>
        <time>2023-04-24T20:41:18Z</time>
      </trkpt>
      <trkpt lat="42.95001" lon="1.92099">
        <ele>487</ele>
        <time>2023-04-24T20:41:38Z</time>
      </trkpt>
      <trkpt lat="42.95005" lon="1.92088">
        <ele>487</ele>
        <time>2023-04-24T20:41:42Z</time>
      </trkpt>
      <trkpt lat="42.95007" lon="1.92063">
        <ele>487</ele>
        <time>2023-04-24T20:41:52Z</time>
      </trkpt>
      <trkpt lat="42.95012" lon="1.92052">
        <ele>486</ele>
        <time>2023-04-24T20:41:56Z</time>
      </trkpt>
      <trkpt lat="42.95017" lon="1.92024">
        <ele>486</ele>
        <time>2023-04-24T20:42:07Z</time>
      </trkpt>
      <trkpt lat="42.95021" lon="1.9201">
        <ele>486</ele>
        <time>2023-04-24T20:42:12Z</time>
      </trkpt>
      <trkpt lat="42.95051" lon="1.91976">
        <ele>489</ele>
        <time>2023-04-24T20:42:32Z</time>
      </trkpt>
      <trkpt lat="42.95055" lon="1.91964">
        <ele>489</ele>
        <time>2023-04-24T20:42:37Z</time>
      </trkpt>
      <trkpt lat="42.95069" lon="1.9195">
        <ele>490</ele>
        <time>2023-04-24T20:42:45Z</time>
      </trkpt>
      <trkpt lat="42.95083" lon="1.9193">
        <ele>492</ele>
        <time>2023-04-24T20:42:56Z</time>
      </trkpt>
      <trkpt lat="42.95088" lon="1.91918">
        <ele>492</ele>
        <time>2023-04-24T20:43:01Z</time>
      </trkpt>
      <trkpt lat="42.95097" lon="1.91861">
        <ele>486</ele>
        <time>2023-04-24T20:43:22Z</time>
      </trkpt>
      <trkpt lat="42.95114" lon="1.9181">
        <ele>482</ele>
        <time>2023-04-24T20:43:42Z</time>
      </trkpt>
      <trkpt lat="42.95128" lon="1.91785">
        <ele>481</ele>
        <time>2023-04-24T20:43:54Z</time>
      </trkpt>
      <trkpt lat="42.95139" lon="1.91749">
        <ele>480</ele>
        <time>2023-04-24T20:44:08Z</time>
      </trkpt>
      <trkpt lat="42.95146" lon="1.9171">
        <ele>479</ele>
        <time>2023-04-24T20:44:23Z</time>
      </trkpt>
      <trkpt lat="42.95166" lon="1.91629">
        <ele>479</ele>
        <time>2023-04-24T20:44:54Z</time>
      </trkpt>
      <trkpt lat="42.95166" lon="1.91613">
        <ele>478</ele>
        <time>2023-04-24T20:45:00Z</time>
      </trkpt>
      <trkpt lat="42.95178" lon="1.91542">
        <ele>474</ele>
        <time>2023-04-24T20:45:27Z</time>
      </trkpt>
      <trkpt lat="42.95211" lon="1.91439">
        <ele>471</ele>
        <time>2023-04-24T20:46:08Z</time>
      </trkpt>
      <trkpt lat="42.95238" lon="1.91393">
        <ele>473</ele>
        <time>2023-04-24T20:46:30Z</time>
      </trkpt>
      <trkpt lat="42.9526" lon="1.9133">
        <ele>471</ele>
        <time>2023-04-24T20:46:55Z</time>
      </trkpt>
      <trkpt lat="42.95259" lon="1.91315">
        <ele>469</ele>
        <time>2023-04-24T20:47:01Z</time>
      </trkpt>
      <trkpt lat="42.95276" lon="1.9128">
        <ele>464</ele>
        <time>2023-04-24T20:47:16Z</time>
      </trkpt>
      <trkpt lat="42.95285" lon="1.91268">
        <ele>462</ele>
        <time>2023-04-24T20:47:22Z</time>
      </trkpt>
      <trkpt lat="42.95332" lon="1.91219">
        <ele>456</ele>
        <time>2023-04-24T20:47:52Z</time>
      </trkpt>
      <trkpt lat="42.95354" lon="1.91164">
        <ele>450</ele>
        <time>2023-04-24T20:48:15Z</time>
      </trkpt>
      <trkpt lat="42.95385" lon="1.91144">
        <ele>445</ele>
        <time>2023-04-24T20:48:32Z</time>
      </trkpt>
      <trkpt lat="42.95391" lon="1.91137">
        <ele>444</ele>
        <time>2023-04-24T20:48:36Z</time>
      </trkpt>
      <trkpt lat="42.95398" lon="1.91122">
        <ele>442</ele>
        <time>2023-04-24T20:48:43Z</time>
      </trkpt>
      <trkpt lat="42.95413" lon="1.91048">
        <ele>437</ele>
        <time>2023-04-24T20:49:11Z</time>
      </trkpt>
      <trkpt lat="42.95443" lon="1.90931">
        <ele>432</ele>
        <time>2023-04-24T20:49:56Z</time>
      </trkpt>
      <trkpt lat="42.95453" lon="1.90934">
        <ele>432</ele>
        <time>2023-04-24T20:50:01Z</time>
      </trkpt>
      <trkpt lat="42.95476" lon="1.90949">
        <ele>432</ele>
        <time>2023-04-24T20:50:14Z</time>
      </trkpt>
      <trkpt lat="42.95508" lon="1.90994">
        <ele>431</ele>
        <time>2023-04-24T20:50:37Z</time>
      </trkpt>
      <trkpt lat="42.95512" lon="1.90994">
        <ele>431</ele>
        <time>2023-04-24T20:50:39Z</time>
      </trkpt>
      <trkpt lat="42.95515" lon="1.90991">
        <ele>431</ele>
        <time>2023-04-24T20:50:41Z</time>
      </trkpt>
      <trkpt lat="42.95532" lon="1.90958">
        <ele>432</ele>
        <time>2023-04-24T20:50:56Z</time>
      </trkpt>
      <trkpt lat="42.95536" lon="1.90961">
        <ele>432</ele>
        <time>2023-04-24T20:50:58Z</time>
      </trkpt>
      <trkpt lat="42.95603" lon="1.91075">
        <ele>430</ele>
        <time>2023-04-24T20:51:51Z</time>
      </trkpt>
    </trkseg>
  </trk>
</gpx>